Data Archive--January, 2003

Date Time Heat Index Current Temp Wind Chill High Temp Low Temp Humidity Dew Point Wind Speed Gust Direction Rain Barometer
01/01/2003 12:00 a 39.0 39.0 39.0 39.4 38.4 94 37.4 0.0 1.0 ENE 0.00 29.827
01/01/2003 12:30 a 39.4 39.4 39.4 39.7 39.1 93 37.5 0.0 0.0 --- 0.00 29.829
01/01/2003 1:00 a 40.1 40.1 40.1 41.4 39.2 90 37.4 0.0 2.0 ENE 0.00 29.843
01/01/2003 1:30 a 42.2 42.2 42.2 42.5 41.4 86 38.3 0.0 2.0 E 0.00 29.840
01/01/2003 2:00 a 42.3 42.3 42.3 42.3 42.2 85 38.1 0.0 1.0 ESE 0.00 29.857
01/01/2003 2:30 a 42.0 42.0 42.0 42.3 41.7 85 37.8 0.0 0.0 --- 0.00 29.872
01/01/2003 3:00 a 42.2 42.2 42.2 42.4 41.8 83 37.4 0.0 1.0 ESE 0.00 29.868
01/01/2003 3:30 a 42.1 42.1 42.1 42.3 41.5 93 40.2 0.0 0.0 --- 0.01 29.864
01/01/2003 4:00 a 41.1 41.1 41.1 41.5 41.0 95 39.8 0.0 0.0 --- 0.01 29.848
01/01/2003 4:30 a 41.0 41.0 41.0 41.1 40.9 96 39.9 0.0 0.0 --- 0.00 29.851
01/01/2003 5:00 a 41.1 41.1 41.1 41.2 40.9 95 39.8 0.0 0.0 --- 0.00 29.851
01/01/2003 5:30 a 41.1 41.1 41.1 41.1 41.0 96 40.0 0.0 0.0 --- 0.00 29.844
01/01/2003 6:00 a 41.1 41.1 41.1 41.2 41.1 96 40.0 0.0 0.0 --- 0.00 29.853
01/01/2003 6:30 a 41.1 41.1 41.1 41.2 41.0 96 40.0 0.0 0.0 --- 0.01 29.856
01/01/2003 7:00 a 41.1 41.1 41.1 41.2 41.0 96 40.0 0.0 0.0 --- 0.00 29.867
01/01/2003 7:30 a 41.1 41.1 41.1 41.3 41.0 96 40.0 0.0 0.0 --- 0.01 29.877
01/01/2003 8:00 a 41.5 41.5 41.5 41.6 41.3 96 40.4 0.0 0.0 --- 0.00 29.889
01/01/2003 8:30 a 41.9 41.9 41.9 42.3 41.6 97 41.1 0.0 0.0 --- 0.00 29.893
01/01/2003 9:00 a 42.7 42.7 42.7 43.1 42.3 96 41.6 0.0 0.0 --- 0.01 29.886
01/01/2003 9:30 a 43.7 43.7 43.7 44.1 43.1 96 42.6 0.0 0.0 --- 0.01 29.879
01/01/2003 10:00 a 44.2 44.2 44.2 44.4 44.1 97 43.4 0.0 0.0 --- 0.01 29.865
01/01/2003 10:30 a 44.6 44.6 44.6 44.7 44.4 97 43.8 0.0 2.0 ESE 0.04 29.844
01/01/2003 11:00 a 44.4 44.4 44.4 44.7 44.1 96 43.3 0.0 2.0 NW 0.03 29.821
01/01/2003 11:30 a 44.2 44.2 44.2 44.3 44.1 96 43.1 0.0 2.0 NW 0.02 29.789
01/01/2003 12:00 p 43.8 43.8 43.8 44.2 43.2 97 43.0 1.0 5.0 NW 0.07 29.774
01/01/2003 12:30 p 43.0 43.0 43.0 43.2 42.6 96 41.9 1.0 4.0 NW 0.02 29.751
01/01/2003 1:00 p 42.1 42.1 42.1 42.6 41.8 97 41.3 2.0 5.0 NW 0.02 29.731
01/01/2003 1:30 p 41.6 41.6 41.6 41.8 41.1 97 40.8 1.0 5.0 NNW 0.02 29.717
01/01/2003 2:00 p 40.7 40.7 40.7 41.1 40.4 96 39.7 2.0 4.0 NW 0.07 29.683
01/01/2003 2:30 p 40.2 40.2 40.2 40.4 39.9 97 39.4 1.0 5.0 NW 0.03 29.681
01/01/2003 3:00 p 39.7 39.7 39.7 39.9 39.5 97 38.9 1.0 4.0 NW 0.09 29.687
01/01/2003 3:30 p 39.4 39.4 39.4 39.5 39.2 97 38.6 2.0 5.0 NW 0.04 29.667
01/01/2003 4:00 p 39.0 39.0 39.0 39.2 38.8 97 38.2 2.0 5.0 NW 0.05 29.654
01/01/2003 4:30 p 38.6 38.6 38.6 38.9 38.4 97 37.8 1.0 6.0 WNW 0.08 29.671
01/01/2003 5:00 p 38.2 38.2 38.2 38.4 37.9 97 37.4 1.0 5.0 NW 0.00 29.654
01/01/2003 5:30 p 37.7 37.7 37.7 37.9 37.5 97 36.9 1.0 6.0 NW 0.01 29.617
01/01/2003 6:00 p 37.4 37.4 37.4 37.5 37.2 97 36.6 2.0 5.0 NW 0.01 29.594
01/01/2003 6:30 p 37.1 37.1 37.1 37.2 37.0 97 36.3 2.0 7.0 NW 0.00 29.575
01/01/2003 7:00 p 36.9 36.9 36.9 37.0 36.8 97 36.1 2.0 7.0 NW 0.01 29.553
01/01/2003 7:30 p 36.8 36.8 36.8 36.8 36.7 97 36.0 2.0 9.0 NW 0.01 29.546
01/01/2003 8:00 p 36.8 36.8 36.8 36.9 36.8 97 36.0 2.0 6.0 NW 0.00 29.536
01/01/2003 8:30 p 36.8 36.8 36.8 36.8 36.7 97 36.0 1.0 6.0 NW 0.03 29.525
01/01/2003 9:00 p 36.9 36.9 36.9 36.9 36.8 97 36.1 1.0 4.0 NW 0.06 29.506
01/01/2003 9:30 p 36.9 36.9 36.9 37.0 36.8 97 36.1 1.0 4.0 NW 0.12 29.513
01/01/2003 10:00 p 36.8 36.8 36.8 36.9 36.8 97 36.0 1.0 5.0 W 0.17 29.528
01/01/2003 10:30 p 36.8 36.8 36.8 36.8 36.7 97 36.0 1.0 6.0 WNW 0.02 29.522
01/01/2003 11:00 p 36.7 36.7 36.7 36.8 36.5 97 35.9 1.0 5.0 WNW 0.01 29.514
01/01/2003 11:30 p 36.4 36.4 36.4 36.6 36.3 97 35.6 1.0 4.0 W 0.04 29.520
01/02/2003 12:00 a 36.1 36.1 36.1 36.3 36.0 97 35.3 1.0 6.0 WSW 0.02 29.525
01/02/2003 12:30 a 36.0 36.0 36.0 36.1 35.9 97 35.2 1.0 5.0 WNW 0.02 29.534
01/02/2003 1:00 a 35.5 35.5 35.5 35.9 35.2 97 34.7 1.0 6.0 WSW 0.02 29.543
01/02/2003 1:30 a 35.1 35.1 35.1 35.2 35.0 97 34.3 1.0 5.0 WNW 0.03 29.548
01/02/2003 2:00 a 35.0 35.0 35.0 35.1 35.0 97 34.2 1.0 4.0 W 0.02 29.568
01/02/2003 2:30 a 35.2 35.2 35.2 35.3 35.0 97 34.4 0.0 3.0 W 0.00 29.575
01/02/2003 3:00 a 35.5 35.5 35.5 35.6 35.3 97 34.7 0.0 5.0 S 0.00 29.587
01/02/2003 3:30 a 35.6 35.6 35.6 35.7 35.6 97 34.8 0.0 3.0 S 0.00 29.605
01/02/2003 4:00 a 35.7 35.7 35.7 35.8 35.6 97 34.9 1.0 4.0 S 0.00 29.633
01/02/2003 4:30 a 35.8 35.8 35.8 35.9 35.7 97 35.0 1.0 4.0 SSW 0.00 29.650
01/02/2003 5:00 a 35.7 35.7 35.7 35.8 35.6 97 34.9 1.0 4.0 SSW 0.00 29.682
01/02/2003 5:30 a 35.4 35.4 35.4 35.7 35.2 97 34.6 1.0 7.0 SSW 0.00 29.687
01/02/2003 6:00 a 34.5 34.5 34.5 35.2 33.7 97 33.7 1.0 8.0 W 0.00 29.675
01/02/2003 6:30 a 33.6 33.6 33.6 34.0 33.4 97 32.8 1.0 4.0 W 0.00 29.740
01/02/2003 7:00 a 34.1 34.1 34.1 34.3 34.0 97 33.3 1.0 4.0 W 0.00 29.762
01/02/2003 7:30 a 33.8 33.8 33.8 34.0 33.7 97 33.0 1.0 5.0 W 0.00 29.799
01/02/2003 8:00 a 33.6 33.6 33.6 33.7 33.5 97 32.8 1.0 5.0 W 0.00 29.812
01/02/2003 8:30 a 34.2 34.2 34.2 34.6 33.7 97 33.4 1.0 5.0 WSW 0.00 29.841
01/02/2003 9:00 a 34.6 34.6 34.6 34.9 34.3 97 33.8 1.0 7.0 W 0.00 29.862
01/02/2003 9:30 a 34.1 34.1 34.1 34.3 33.9 97 33.3 1.0 6.0 SSW 0.00 29.885
01/02/2003 10:00 a 34.0 34.0 34.0 34.4 33.8 97 33.2 1.0 5.0 W 0.00 29.894
01/02/2003 10:30 a 35.0 35.0 35.0 35.5 34.4 97 34.2 1.0 4.0 NW 0.00 29.883
01/02/2003 11:00 a 35.8 35.8 35.8 36.1 35.4 95 34.5 1.0 5.0 NW 0.00 29.892
01/02/2003 11:30 a 35.6 35.6 35.6 36.2 35.2 93 33.8 1.0 4.0 NNW 0.00 29.879
01/02/2003 12:00 p 36.9 36.9 36.9 37.4 36.2 91 34.5 1.0 5.0 NW 0.00 29.866
01/02/2003 12:30 p 37.6 37.6 37.6 37.9 37.0 90 34.9 1.0 4.0 NW 0.00 29.866
01/02/2003 1:00 p 38.4 38.4 38.4 38.8 37.8 89 35.4 1.0 4.0 N 0.00 29.877
01/02/2003 1:30 p 37.6 37.6 37.6 38.1 37.0 89 34.7 1.0 4.0 NNW 0.00 29.878
01/02/2003 2:00 p 36.9 36.9 36.9 37.1 36.4 88 33.7 1.0 5.0 NW 0.00 29.901
01/02/2003 2:30 p 36.4 36.4 36.4 36.7 35.9 87 32.9 1.0 3.0 NNW 0.00 29.921
01/02/2003 3:00 p 35.5 35.5 35.5 35.9 34.9 87 32.0 1.0 3.0 NNW 0.00 29.940
01/02/2003 3:30 p 34.3 34.3 34.3 34.9 33.7 87 30.8 1.0 4.0 NNW 0.00 29.961
01/02/2003 4:00 p 33.5 33.5 33.5 33.7 33.0 85 29.5 1.0 4.0 NNW 0.00 29.964
01/02/2003 4:30 p 32.5 32.5 32.5 33.0 32.2 86 28.8 1.0 4.0 NNW 0.00 29.982
01/02/2003 5:00 p 32.0 32.0 32.0 32.3 31.9 83 27.4 1.0 3.0 NNW 0.00 29.978
01/02/2003 5:30 p 31.9 31.9 31.9 31.9 31.7 81 26.7 1.0 3.0 NW 0.00 29.996
01/02/2003 6:00 p 31.6 31.6 31.6 31.8 31.5 79 25.8 0.0 3.0 NNW 0.00 30.009
01/02/2003 6:30 p 31.3 31.3 31.3 31.5 31.1 82 26.5 0.0 4.0 NW 0.00 30.020
01/02/2003 7:00 p 30.8 30.8 30.8 31.1 30.1 85 26.8 1.0 4.0 N 0.00 30.027
01/02/2003 7:30 p 29.4 29.4 29.4 30.1 29.0 93 27.6 0.0 3.0 WNW 0.00 30.033
01/02/2003 8:00 p 28.7 28.7 28.7 29.0 28.5 94 27.2 1.0 5.0 N 0.00 30.027
01/02/2003 8:30 p 28.6 28.6 28.6 28.7 28.5 94 27.1 1.0 4.0 N 0.00 30.048
01/02/2003 9:00 p 28.8 28.8 28.8 28.9 28.5 94 27.3 1.0 4.0 N 0.00 30.029
01/02/2003 9:30 p 28.8 28.8 28.8 28.9 28.7 94 27.3 0.0 3.0 N 0.00 30.031
01/02/2003 10:00 p 28.6 28.6 28.6 28.7 28.5 94 27.1 1.0 4.0 N 0.00 30.032
01/02/2003 10:30 p 28.6 28.6 28.6 28.7 28.6 94 27.1 1.0 4.0 N 0.00 30.034
01/02/2003 11:00 p 28.8 28.8 28.8 29.0 28.7 94 27.3 1.0 4.0 N 0.00 30.018
01/02/2003 11:30 p 29.2 29.2 29.2 29.3 29.0 94 27.7 1.0 5.0 N 0.00 30.020
01/03/2003 12:00 a 29.3 29.3 29.3 29.4 29.3 94 27.8 1.0 4.0 N 0.00 30.020
01/03/2003 12:30 a 29.4 29.4 29.4 29.4 29.3 94 27.9 1.0 4.0 N 0.00 30.019
01/03/2003 1:00 a 29.5 29.5 29.5 29.6 29.4 94 28.0 1.0 4.0 N 0.00 30.012
01/03/2003 1:30 a 29.2 29.2 29.2 29.5 29.0 94 27.7 1.0 4.0 N 0.00 30.011
01/03/2003 2:00 a 29.1 29.1 29.1 29.2 29.1 94 27.6 1.0 5.0 N 0.00 30.006
01/03/2003 2:30 a 29.1 29.1 29.1 29.3 28.7 94 27.6 1.0 3.0 N 0.00 29.997
01/03/2003 3:00 a 28.4 28.4 28.4 28.7 28.1 94 26.9 1.0 4.0 N 0.00 29.984
01/03/2003 3:30 a 28.1 28.1 28.1 28.1 28.0 94 26.6 1.0 5.0 N 0.00 29.966
01/03/2003 4:00 a 28.1 28.1 28.1 28.2 28.0 94 26.6 1.0 4.0 N 0.00 29.956
01/03/2003 4:30 a 28.3 28.3 28.3 28.5 28.2 94 26.8 1.0 5.0 N 0.00 29.954
01/03/2003 5:00 a 28.6 28.6 28.6 28.7 28.5 94 27.1 1.0 4.0 N 0.00 29.951
01/03/2003 5:30 a 29.0 29.0 29.0 29.3 28.7 94 27.5 1.0 3.0 N 0.00 29.946
01/03/2003 6:00 a 29.6 29.6 29.6 29.9 29.3 94 28.1 1.0 4.0 N 0.00 29.946
01/03/2003 6:30 a 30.1 30.1 30.1 30.3 29.9 95 28.8 2.0 5.0 N 0.00 29.924
01/03/2003 7:00 a 30.5 30.5 30.5 30.7 30.2 95 29.2 2.0 6.0 N 0.00 29.930
01/03/2003 7:30 a 30.7 30.7 30.7 30.8 30.6 95 29.4 2.0 6.0 N 0.00 29.907
01/03/2003 8:00 a 30.9 30.9 30.9 31.0 30.7 95 29.6 2.0 5.0 N 0.00 29.909
01/03/2003 8:30 a 31.4 31.4 31.4 31.9 31.0 95 30.1 2.0 5.0 N 0.00 29.904
01/03/2003 9:00 a 31.9 31.9 31.9 32.0 31.9 95 30.6 2.0 6.0 N 0.00 29.885
01/03/2003 9:30 a 32.0 32.0 32.0 32.1 32.0 95 30.7 2.0 6.0 NNW 0.00 29.878
01/03/2003 10:00 a 32.1 32.1 32.1 32.1 32.0 95 30.8 1.0 5.0 NW 0.00 29.855
01/03/2003 10:30 a 32.2 32.2 32.2 32.2 32.1 95 30.9 2.0 7.0 NW 0.00 29.847
01/03/2003 11:00 a 32.2 32.2 32.2 32.3 32.2 95 30.9 2.0 5.0 NW 0.00 29.826
01/03/2003 11:30 a 32.4 32.4 32.4 32.6 32.3 95 31.1 2.0 6.0 NW 0.00 29.798
01/03/2003 12:00 p 32.6 32.6 32.6 32.7 32.5 95 31.3 2.0 5.0 NW 0.01 29.773
01/03/2003 12:30 p 32.7 32.7 32.7 32.9 32.6 95 31.4 1.0 6.0 NW 0.01 29.763
01/03/2003 1:00 p 32.7 32.7 32.7 32.8 32.7 95 31.4 2.0 6.0 NW 0.00 29.738
01/03/2003 1:30 p 32.8 32.8 32.8 32.9 32.7 96 31.8 2.0 6.0 NW 0.01 29.736
01/03/2003 2:00 p 32.9 32.9 32.9 33.1 32.7 95 31.6 3.0 7.0 NW 0.00 29.705
01/03/2003 2:30 p 33.0 33.0 33.0 33.1 32.8 95 31.7 2.0 7.0 NW 0.01 29.689
01/03/2003 3:00 p 32.9 32.9 32.9 33.0 32.7 95 31.6 2.0 6.0 NW 0.00 29.685
01/03/2003 3:30 p 32.6 32.6 32.6 32.7 32.4 96 31.6 2.0 7.0 NW 0.01 29.680
01/03/2003 4:00 p 32.4 32.4 32.4 32.5 32.4 96 31.4 2.0 4.0 WNW 0.02 29.662
01/03/2003 4:30 p 32.5 32.5 32.5 32.5 32.4 96 31.5 2.0 5.0 NW 0.02 29.650
01/03/2003 5:00 p 32.5 32.5 32.5 32.6 32.5 96 31.5 1.0 5.0 NW 0.01 29.640
01/03/2003 5:30 p 32.5 32.5 32.5 32.6 32.4 96 31.5 1.0 6.0 NW 0.00 29.640
01/03/2003 6:00 p 32.3 32.3 32.3 32.4 32.1 96 31.3 1.0 6.0 NW 0.00 29.631
01/03/2003 6:30 p 32.1 32.1 32.1 32.2 32.0 96 31.1 1.0 6.0 NW 0.03 29.635
01/03/2003 7:00 p 31.9 31.9 31.9 32.0 31.9 96 30.9 1.0 5.0 WNW 0.00 29.621
01/03/2003 7:30 p 31.9 31.9 31.9 32.0 31.9 96 30.9 1.0 6.0 WNW 0.02 29.601
01/03/2003 8:00 p 32.0 32.0 32.0 32.1 31.9 96 31.0 2.0 4.0 WNW 0.01 29.588
01/03/2003 8:30 p 32.1 32.1 32.1 32.1 32.0 96 31.1 1.0 6.0 W 0.09 29.571
01/03/2003 9:00 p 32.2 32.2 32.2 32.4 32.0 97 31.4 2.0 5.0 WNW 0.08 29.555
01/03/2003 9:30 p 32.4 32.4 32.4 32.5 32.3 96 31.4 1.0 7.0 W 0.05 29.542
01/03/2003 10:00 p 32.6 32.6 32.6 32.8 32.5 96 31.6 1.0 5.0 WNW 0.00 29.540
01/03/2003 10:30 p 32.9 32.9 32.9 33.0 32.8 97 32.1 1.0 3.0 WSW 0.01 29.531
01/03/2003 11:00 p 33.1 33.1 33.1 33.1 33.0 96 32.1 0.0 3.0 W 0.00 29.513
01/03/2003 11:30 p 33.2 33.2 33.2 33.3 33.1 96 32.2 1.0 4.0 W 0.01 29.503
01/04/2003 12:00 a 33.3 33.3 33.3 33.3 33.1 97 32.5 0.0 3.0 S 0.00 29.497
01/04/2003 12:30 a 32.8 32.8 32.8 33.1 32.6 97 32.0 1.0 5.0 S 0.00 29.498
01/04/2003 1:00 a 32.3 32.3 32.3 32.6 32.2 96 31.3 1.0 5.0 SSW 0.01 29.501
01/04/2003 1:30 a 32.1 32.1 32.1 32.2 32.0 96 31.1 1.0 5.0 SW 0.01 29.510
01/04/2003 2:00 a 32.0 32.0 32.0 32.0 31.9 97 31.2 0.0 3.0 SSW 0.00 29.517
01/04/2003 2:30 a 31.9 31.9 31.9 32.0 31.9 96 30.9 1.0 6.0 S 0.00 29.519
01/04/2003 3:00 a 31.9 31.9 31.9 31.9 31.8 96 30.9 0.0 0.0 --- 0.00 29.524
01/04/2003 3:30 a 31.8 31.8 31.8 31.8 31.7 97 31.0 0.0 0.0 --- 0.01 29.529
01/04/2003 4:00 a 31.7 31.7 31.7 31.8 31.7 96 30.7 0.0 0.0 --- 0.00 29.530
01/04/2003 4:30 a 31.7 31.7 31.7 31.7 31.7 96 30.7 0.0 0.0 --- 0.00 29.530
01/04/2003 5:00 a 31.7 31.7 31.7 31.7 31.6 97 30.9 0.0 0.0 --- 0.00 29.533
01/04/2003 5:30 a 31.7 31.7 31.7 31.7 31.6 97 30.9 0.0 0.0 --- 0.00 29.541
01/04/2003 6:00 a 31.6 31.6 31.6 31.7 31.3 97 30.8 0.0 0.0 --- 0.00 29.547
01/04/2003 6:30 a 31.7 31.7 31.7 31.9 31.4 97 30.9 0.0 0.0 --- 0.00 29.552
01/04/2003 7:00 a 31.9 31.9 31.9 32.0 31.8 96 30.9 0.0 0.0 --- 0.00 29.565
01/04/2003 7:30 a 32.0 32.0 32.0 32.1 32.0 97 31.2 0.0 4.0 S 0.00 29.583
01/04/2003 8:00 a 32.2 32.2 32.2 32.2 32.0 97 31.4 1.0 6.0 S 0.00 29.600
01/04/2003 8:30 a 32.4 32.4 32.4 32.8 32.2 97 31.6 1.0 6.0 S 0.00 29.616
01/04/2003 9:00 a 33.2 33.2 33.2 33.5 32.7 97 32.4 2.0 7.0 SSE 0.01 29.623
01/04/2003 9:30 a 33.8 33.8 33.8 34.1 33.5 97 33.0 2.0 6.0 SSE 0.00 29.636
01/04/2003 10:00 a 34.2 34.2 34.2 34.3 34.0 96 33.2 3.0 7.0 SSE 0.01 29.646
01/04/2003 10:30 a 34.4 34.4 34.4 34.6 34.1 96 33.4 2.0 6.0 SSE 0.00 29.649
01/04/2003 11:00 a 34.9 34.9 34.9 35.4 34.4 96 33.9 1.0 5.0 SSE 0.01 29.647
01/04/2003 11:30 a 35.2 35.2 35.2 35.4 34.7 94 33.7 2.0 6.0 SSE 0.01 29.646
01/04/2003 12:00 p 34.9 34.9 34.9 35.4 34.6 94 33.4 2.0 7.0 SSE 0.00 29.638
01/04/2003 12:30 p 35.8 35.8 35.8 36.1 35.4 93 34.0 2.0 9.0 SSE 0.01 29.643
01/04/2003 1:00 p 36.1 36.1 36.1 36.4 35.7 93 34.3 2.0 9.0 SSE 0.01 29.644
01/04/2003 1:30 p 36.8 36.8 36.8 37.3 36.2 92 34.7 2.0 8.0 SSE 0.01 29.646
01/04/2003 2:00 p 37.2 37.2 37.2 37.6 36.4 90 34.5 2.0 9.0 SSE 0.01 29.655
01/04/2003 2:30 p 36.5 36.5 36.5 36.8 36.1 90 33.9 2.0 7.0 SSE 0.00 29.669
01/04/2003 3:00 p 36.1 36.1 36.1 36.6 35.6 91 33.7 2.0 8.0 SSE 0.01 29.683
01/04/2003 3:30 p 35.5 35.5 35.5 35.6 35.5 91 33.1 2.0 6.0 SSE 0.00 29.693
01/04/2003 4:00 p 35.3 35.3 35.3 35.5 35.1 92 33.2 1.0 6.0 SSE 0.00 29.707
01/04/2003 4:30 p 35.0 35.0 35.0 35.1 34.8 93 33.2 0.0 3.0 SSE 0.00 29.719
01/04/2003 5:00 p 34.7 34.7 34.7 34.8 34.7 92 32.6 1.0 6.0 SSE 0.00 29.735
01/04/2003 5:30 p 34.6 34.6 34.6 34.7 34.4 93 32.8 1.0 5.0 SSE 0.01 29.756
01/04/2003 6:00 p 34.5 34.5 34.5 34.5 34.4 92 32.4 1.0 5.0 SSE 0.00 29.774
01/04/2003 6:30 p 34.5 34.5 34.5 34.5 34.3 92 32.4 1.0 7.0 SSE 0.00 29.789
01/04/2003 7:00 p 34.4 34.4 34.4 34.6 34.3 91 32.1 1.0 6.0 SSE 0.00 29.811
01/04/2003 7:30 p 34.4 34.4 34.4 34.6 34.3 91 32.1 1.0 6.0 SSE 0.00 29.814
01/04/2003 8:00 p 34.3 34.3 34.3 34.5 34.1 92 32.2 0.0 4.0 SSE 0.00 29.823
01/04/2003 8:30 p 34.0 34.0 34.0 34.1 33.9 93 32.2 0.0 2.0 SSE 0.00 29.837
01/04/2003 9:00 p 33.9 33.9 33.9 33.9 33.8 93 32.1 0.0 2.0 SSE 0.00 29.841
01/04/2003 9:30 p 34.0 34.0 34.0 34.2 33.9 92 31.9 0.0 3.0 SSE 0.00 29.843
01/04/2003 10:00 p 34.4 34.4 34.4 34.5 34.2 91 32.1 1.0 5.0 SSE 0.00 29.844
01/04/2003 10:30 p 34.0 34.0 34.0 34.4 33.6 92 31.9 0.0 3.0 SSE 0.00 29.852
01/04/2003 11:00 p 33.7 33.7 33.7 33.9 33.6 91 31.4 0.0 3.0 SSW 0.00 29.858
01/04/2003 11:30 p 34.2 34.2 34.2 34.3 33.9 88 31.0 1.0 8.0 SSE 0.00 29.855
01/05/2003 12:00 a 34.2 34.2 34.2 34.3 33.9 89 31.3 1.0 8.0 SSE 0.00 29.858
01/05/2003 12:30 a 33.8 33.8 33.8 34.0 33.7 89 30.9 0.0 4.0 SSE 0.01 29.868
01/05/2003 1:00 a 33.7 33.7 33.7 33.9 33.6 86 30.0 0.0 4.0 SSE 0.00 29.875
01/05/2003 1:30 a 34.0 34.0 34.0 34.1 33.9 87 30.5 1.0 5.0 SSE 0.00 29.889
01/05/2003 2:00 a 33.9 33.9 33.9 34.1 33.8 86 30.2 1.0 5.0 SSE 0.00 29.900
01/05/2003 2:30 a 33.6 33.6 33.6 33.8 33.4 88 30.4 0.0 0.0 --- 0.00 29.907
01/05/2003 3:00 a 33.2 33.2 33.2 33.4 33.1 88 30.0 0.0 0.0 --- 0.00 29.907
01/05/2003 3:30 a 33.3 33.3 33.3 33.4 33.2 89 30.4 0.0 0.0 --- 0.00 29.918
01/05/2003 4:00 a 33.3 33.3 33.3 33.3 33.2 90 30.7 0.0 0.0 --- 0.00 29.912
01/05/2003 4:30 a 33.3 33.3 33.3 33.4 33.2 90 30.7 0.0 1.0 --- 0.00 29.913
01/05/2003 5:00 a 33.3 33.3 33.3 33.4 33.0 88 30.1 0.0 2.0 ESE 0.00 29.909
01/05/2003 5:30 a 32.2 32.2 32.2 33.1 31.7 91 29.9 0.0 1.0 ESE 0.00 29.924
01/05/2003 6:00 a 32.0 32.0 32.0 32.1 31.8 91 29.7 0.0 0.0 --- 0.00 29.925
01/05/2003 6:30 a 32.2 32.2 32.2 32.4 32.1 89 29.3 0.0 2.0 ESE 0.00 29.937
01/05/2003 7:00 a 32.0 32.0 32.0 32.4 31.4 90 29.4 0.0 1.0 --- 0.00 29.953
01/05/2003 7:30 a 31.7 31.7 31.7 32.1 31.3 88 28.6 0.0 1.0 ESE 0.00 29.952
01/05/2003 8:00 a 31.0 31.0 31.0 32.0 30.4 90 28.4 0.0 0.0 --- 0.00 29.971
01/05/2003 8:30 a 33.8 33.8 33.8 38.9 30.8 80 28.3 0.0 2.0 ESE 0.00 29.965
01/05/2003 9:00 a 38.1 38.1 38.1 39.3 37.1 77 31.5 0.0 4.0 SSE 0.00 29.975
01/05/2003 9:30 a 37.4 37.4 37.4 39.4 35.3 77 30.9 1.0 4.0 SSE 0.00 29.985
01/05/2003 10:00 a 35.9 35.9 35.9 37.0 35.1 74 28.4 0.0 4.0 SSE 0.01 29.990
01/05/2003 10:30 a 37.3 37.3 37.3 37.5 37.0 75 30.1 0.0 3.0 SSE 0.00 29.988
01/05/2003 11:00 a 37.1 37.1 37.1 37.3 37.0 73 29.3 0.0 3.0 SSE 0.00 29.972
01/05/2003 11:30 a 37.7 37.7 37.7 37.8 37.3 69 28.5 0.0 2.0 SSE 0.00 29.953
01/05/2003 12:00 p 37.4 37.4 37.4 37.7 36.8 69 28.2 0.0 2.0 SSE 0.00 29.957
01/05/2003 12:30 p 36.9 36.9 36.9 37.4 36.6 69 27.7 0.0 2.0 SSE 0.01 29.936
01/05/2003 1:00 p 37.9 37.9 37.9 38.4 37.4 68 28.3 0.0 4.0 SSE 0.00 29.924
01/05/2003 1:30 p 38.2 38.2 38.2 38.4 37.9 67 28.2 0.0 2.0 E 0.00 29.922
01/05/2003 2:00 p 38.1 38.1 38.1 38.2 38.0 66 27.8 0.0 2.0 SE 0.00 29.922
01/05/2003 2:30 p 37.9 37.9 37.9 38.0 37.7 67 27.9 0.0 1.0 SE 0.00 29.909
01/05/2003 3:00 p 37.8 37.8 37.8 38.0 37.2 68 28.2 0.0 1.0 --- 0.00 29.900
01/05/2003 3:30 p 36.7 36.7 36.7 37.2 35.9 75 29.5 0.0 3.0 NE 0.00 29.918
01/05/2003 4:00 p 34.4 34.4 34.4 35.9 33.3 90 31.8 0.0 1.0 NE 0.00 29.913
01/05/2003 4:30 p 32.9 32.9 32.9 33.3 32.5 92 30.8 0.0 0.0 --- 0.00 29.923
01/05/2003 5:00 p 32.2 32.2 32.2 32.5 32.0 94 30.7 0.0 0.0 --- 0.00 29.919
01/05/2003 5:30 p 32.0 32.0 32.0 32.1 31.9 94 30.5 0.0 0.0 --- 0.00 29.922
01/05/2003 6:00 p 31.9 31.9 31.9 32.0 31.9 95 30.6 0.0 0.0 --- 0.00 29.914
01/05/2003 6:30 p 31.8 31.8 31.8 31.9 31.8 95 30.5 0.0 0.0 --- 0.00 29.917
01/05/2003 7:00 p 31.9 31.9 31.9 32.0 31.8 95 30.6 0.0 0.0 --- 0.00 29.924
01/05/2003 7:30 p 31.9 31.9 31.9 31.9 31.8 95 30.6 0.0 0.0 --- 0.00 29.927
01/05/2003 8:00 p 31.8 31.8 31.8 31.9 31.7 95 30.5 0.0 0.0 --- 0.00 29.920
01/05/2003 8:30 p 31.7 31.7 31.7 31.8 31.7 95 30.4 0.0 0.0 --- 0.00 29.906
01/05/2003 9:00 p 31.7 31.7 31.7 31.7 31.6 95 30.4 0.0 0.0 --- 0.00 29.906
01/05/2003 9:30 p 31.6 31.6 31.6 31.7 31.5 95 30.3 0.0 0.0 --- 0.00 29.894
01/05/2003 10:00 p 31.5 31.5 31.5 31.6 31.4 95 30.2 0.0 0.0 --- 0.00 29.885
01/05/2003 10:30 p 31.3 31.3 31.3 31.4 31.3 95 30.0 0.0 0.0 --- 0.00 29.880
01/05/2003 11:00 p 31.2 31.2 31.2 31.3 31.0 95 29.9 0.0 0.0 --- 0.00 29.879
01/05/2003 11:30 p 30.9 30.9 30.9 31.1 30.8 94 29.4 0.0 0.0 --- 0.01 29.870
01/06/2003 12:00 a 30.8 30.8 30.8 30.8 30.7 95 29.5 0.0 0.0 --- 0.00 29.864
01/06/2003 12:30 a 30.7 30.7 30.7 30.8 30.7 95 29.4 0.0 0.0 --- 0.00 29.865
01/06/2003 1:00 a 30.9 30.9 30.9 31.0 30.8 95 29.6 0.0 0.0 --- 0.00 29.858
01/06/2003 1:30 a 31.0 31.0 31.0 31.0 30.9 95 29.7 0.0 0.0 --- 0.00 29.859
01/06/2003 2:00 a 31.0 31.0 31.0 31.1 31.0 95 29.7 0.0 0.0 --- 0.00 29.854
01/06/2003 2:30 a 31.0 31.0 31.0 31.0 30.9 95 29.7 0.0 0.0 --- 0.00 29.850
01/06/2003 3:00 a 31.1 31.1 31.1 31.1 31.0 95 29.8 0.0 0.0 --- 0.00 29.840
01/06/2003 3:30 a 31.1 31.1 31.1 31.1 31.0 95 29.8 0.0 0.0 --- 0.00 29.825
01/06/2003 4:00 a 30.9 30.9 30.9 31.1 30.8 95 29.6 0.0 0.0 --- 0.00 29.810
01/06/2003 4:30 a 30.8 30.8 30.8 30.8 30.7 95 29.5 0.0 0.0 --- 0.00 29.813
01/06/2003 5:00 a 30.9 30.9 30.9 31.0 30.8 95 29.6 0.0 0.0 --- 0.00 29.810
01/06/2003 5:30 a 30.9 30.9 30.9 31.0 30.9 95 29.6 0.0 0.0 --- 0.00 29.806
01/06/2003 6:00 a 30.8 30.8 30.8 30.9 30.8 95 29.5 0.0 0.0 --- 0.00 29.807
01/06/2003 6:30 a 30.8 30.8 30.8 30.9 30.8 95 29.5 0.0 0.0 --- 0.00 29.796
01/06/2003 7:00 a 30.6 30.6 30.6 30.8 30.5 95 29.3 0.0 0.0 --- 0.00 29.795
01/06/2003 7:30 a 30.5 30.5 30.5 30.6 30.5 95 29.2 0.0 0.0 --- 0.00 29.797
01/06/2003 8:00 a 30.7 30.7 30.7 30.9 30.5 95 29.4 0.0 0.0 --- 0.00 29.792
01/06/2003 8:30 a 31.3 31.3 31.3 31.6 30.9 95 30.0 0.0 1.0 NE 0.00 29.805
01/06/2003 9:00 a 31.7 31.7 31.7 31.8 31.6 95 30.4 0.0 1.0 NE 0.00 29.799
01/06/2003 9:30 a 31.9 31.9 31.9 32.0 31.8 95 30.6 0.0 2.0 ENE 0.00 29.801
01/06/2003 10:00 a 32.2 32.2 32.2 32.3 32.0 95 30.9 0.0 1.0 ENE 0.00 29.795
01/06/2003 10:30 a 32.3 32.3 32.3 32.4 32.3 95 31.0 0.0 1.0 --- 0.00 29.790
01/06/2003 11:00 a 32.4 32.4 32.4 32.5 32.3 95 31.1 0.0 0.0 --- 0.00 29.781
01/06/2003 11:30 a 32.8 32.8 32.8 33.4 32.4 94 31.3 0.0 2.0 ESE 0.00 29.765
01/06/2003 12:00 p 33.6 33.6 33.6 33.8 33.4 93 31.8 0.0 2.0 ESE 0.00 29.759
01/06/2003 12:30 p 33.9 33.9 33.9 34.1 33.6 93 32.1 0.0 0.0 --- 0.01 29.742
01/06/2003 1:00 p 34.0 34.0 34.0 34.2 33.8 93 32.2 0.0 3.0 SE 0.01 29.723
01/06/2003 1:30 p 33.9 33.9 33.9 34.2 33.7 94 32.4 0.0 2.0 SE 0.02 29.719
01/06/2003 2:00 p 33.6 33.6 33.6 34.0 33.3 94 32.1 0.0 2.0 SE 0.01 29.705
01/06/2003 2:30 p 33.5 33.5 33.5 33.9 33.2 93 31.7 1.0 4.0 SE 0.00 29.709
01/06/2003 3:00 p 33.8 33.8 33.8 34.0 33.7 93 32.0 0.0 3.0 SSE 0.01 29.716
01/06/2003 3:30 p 33.5 33.5 33.5 33.7 33.4 93 31.7 1.0 4.0 SSE 0.00 29.703
01/06/2003 4:00 p 33.3 33.3 33.3 33.5 33.0 91 31.0 0.0 3.0 SSE 0.01 29.718
01/06/2003 4:30 p 32.6 32.6 32.6 33.1 32.4 89 29.7 1.0 5.0 SSE 0.00 29.719
01/06/2003 5:00 p 32.3 32.3 32.3 32.4 32.2 90 29.7 0.0 3.0 S 0.00 29.717
01/06/2003 5:30 p 32.2 32.2 32.2 32.2 32.2 89 29.3 0.0 3.0 S 0.00 29.726
01/06/2003 6:00 p 32.2 32.2 32.2 32.2 32.2 89 29.3 0.0 5.0 SE 0.00 29.732
01/06/2003 6:30 p 32.1 32.1 32.1 32.2 31.9 92 30.0 0.0 1.0 SE 0.00 29.740
01/06/2003 7:00 p 31.6 31.6 31.6 32.0 31.4 93 29.8 0.0 3.0 SE 0.00 29.736
01/06/2003 7:30 p 31.4 31.4 31.4 31.5 31.3 94 29.9 0.0 2.0 SE 0.00 29.732
01/06/2003 8:00 p 31.2 31.2 31.2 31.3 31.2 94 29.7 0.0 2.0 SE 0.00 29.741
01/06/2003 8:30 p 31.3 31.3 31.3 31.6 31.2 95 30.0 0.0 1.0 SE 0.00 29.743
01/06/2003 9:00 p 31.5 31.5 31.5 31.6 31.3 95 30.2 0.0 2.0 SE 0.00 29.742
01/06/2003 9:30 p 30.9 30.9 30.9 31.3 30.5 95 29.6 0.0 0.0 --- 0.00 29.730
01/06/2003 10:00 p 30.4 30.4 30.4 30.6 30.2 95 29.1 0.0 2.0 SE 0.00 29.727
01/06/2003 10:30 p 29.8 29.8 29.8 30.2 29.4 94 28.3 0.0 3.0 SE 0.00 29.723
01/06/2003 11:00 p 29.3 29.3 29.3 29.4 29.2 94 27.8 0.0 3.0 SE 0.00 29.728
01/06/2003 11:30 p 29.0 29.0 29.0 29.2 28.9 94 27.5 0.0 2.0 SE 0.00 29.728
01/07/2003 12:00 a 28.9 28.9 28.9 28.9 28.8 94 27.4 0.0 2.0 SE 0.00 29.725
01/07/2003 12:30 a 28.8 28.8 28.8 28.9 28.8 94 27.3 0.0 2.0 SE 0.00 29.719
01/07/2003 1:00 a 28.8 28.8 28.8 28.8 28.7 94 27.3 0.0 3.0 SE 0.00 29.721
01/07/2003 1:30 a 28.7 28.7 28.7 28.8 28.7 94 27.2 0.0 2.0 SE 0.00 29.726
01/07/2003 2:00 a 28.7 28.7 28.7 28.7 28.7 94 27.2 0.0 2.0 SE 0.00 29.735
01/07/2003 2:30 a 28.8 28.8 28.8 28.9 28.7 94 27.3 0.0 2.0 SE 0.00 29.737
01/07/2003 3:00 a 28.9 28.9 28.9 28.9 28.7 93 27.1 0.0 3.0 SE 0.00 29.738
01/07/2003 3:30 a 28.6 28.6 28.6 28.8 28.4 93 26.8 1.0 4.0 S 0.00 29.743
01/07/2003 4:00 a 28.1 28.1 28.1 28.4 27.9 93 26.3 0.0 3.0 S 0.00 29.738
01/07/2003 4:30 a 27.9 27.9 27.9 28.0 27.8 92 25.9 1.0 12.0 SSE 0.00 29.744
01/07/2003 5:00 a 27.8 27.8 27.8 27.9 27.6 91 25.5 2.0 12.0 SSE 0.00 29.745
01/07/2003 5:30 a 27.5 27.5 27.5 27.7 27.2 90 25.0 2.0 8.0 SSE 0.00 29.757
01/07/2003 6:00 a 26.8 26.8 26.8 27.2 26.6 89 24.0 2.0 10.0 SSE 0.00 29.769
01/07/2003 6:30 a 26.4 26.4 26.4 26.7 26.3 89 23.6 2.0 10.0 SSE 0.00 29.775
01/07/2003 7:00 a 26.2 26.2 26.2 26.5 25.8 89 23.4 2.0 11.0 SSE 0.00 29.788
01/07/2003 7:30 a 25.3 25.3 25.3 25.8 25.0 88 22.3 2.0 6.0 SSE 0.00 29.796
01/07/2003 8:00 a 25.1 25.1 25.1 25.7 24.9 88 22.1 1.0 8.0 S 0.00 29.805
01/07/2003 8:30 a 28.6 28.6 28.6 31.6 25.7 78 22.6 2.0 14.0 SSE 0.00 29.826
01/07/2003 9:00 a 30.9 30.9 30.9 31.9 29.2 74 23.6 3.0 13.0 SSE 0.00 29.824
01/07/2003 9:30 a 29.0 29.0 29.0 30.2 27.8 72 21.1 3.0 13.0 SSE 0.00 29.827
01/07/2003 10:00 a 28.0 28.0 28.0 29.2 27.6 75 21.1 3.0 10.0 SSE 0.00 29.819
01/07/2003 10:30 a 27.7 27.7 27.7 29.1 26.7 60 15.6 3.0 16.0 SSE 0.00 29.814
01/07/2003 11:00 a 30.3 30.3 30.3 34.1 26.8 58 17.3 2.0 11.0 SSE 0.01 29.787
01/07/2003 11:30 a 34.4 34.4 34.4 34.9 33.7 56 20.3 3.0 14.0 SSE 0.00 29.764
01/07/2003 12:00 p 32.9 32.9 32.9 34.6 28.9 57 19.4 4.0 10.0 SSE 0.00 29.747
01/07/2003 12:30 p 27.8 27.8 27.8 28.9 27.2 63 16.9 3.0 12.0 SSE 0.01 29.734
01/07/2003 1:00 p 27.0 27.0 27.0 27.4 26.8 64 16.5 4.0 14.0 SSE 0.00 29.716
01/07/2003 1:30 p 27.1 27.1 27.1 27.2 26.9 61 15.5 3.0 12.0 SSE 0.00 29.707
01/07/2003 2:00 p 27.1 27.1 27.1 27.3 27.0 61 15.5 4.0 11.0 SSE 0.00 29.706
01/07/2003 2:30 p 27.1 27.1 27.1 27.2 27.0 61 15.5 4.0 19.0 SSE 0.00 29.691
01/07/2003 3:00 p 26.8 26.8 26.8 27.0 26.6 62 15.5 3.0 10.0 SSE 0.00 29.669
01/07/2003 3:30 p 26.5 26.5 26.5 26.6 26.4 62 15.3 2.0 7.0 SSE 0.00 29.662
01/07/2003 4:00 p 26.1 26.1 26.1 26.4 25.8 66 16.3 2.0 7.0 SSE 0.00 29.657
01/07/2003 4:30 p 25.5 25.5 25.5 25.9 24.8 70 17.1 1.0 5.0 SSE 0.00 29.640
01/07/2003 5:00 p 24.5 24.5 24.5 24.8 24.2 71 16.5 1.0 5.0 SSE 0.00 29.629
01/07/2003 5:30 p 23.7 23.7 23.7 24.2 23.2 73 16.3 0.0 3.0 SSE 0.00 29.617
01/07/2003 6:00 p 23.1 23.1 23.1 23.2 22.9 74 16.1 0.0 2.0 SSE 0.00 29.600
01/07/2003 6:30 p 23.4 23.4 23.4 23.6 23.1 74 16.4 0.0 3.0 SSE 0.00 29.590
01/07/2003 7:00 p 23.3 23.3 23.3 23.6 23.0 76 16.9 0.0 1.0 SSE 0.00 29.565
01/07/2003 7:30 p 23.3 23.3 23.3 24.3 22.8 75 16.6 0.0 2.0 SSE 0.00 29.560
01/07/2003 8:00 p 24.9 24.9 24.9 25.3 24.3 76 18.4 0.0 3.0 SSE 0.00 29.544
01/07/2003 8:30 p 25.8 25.8 25.8 26.0 25.3 74 18.7 0.0 3.0 SSE 0.00 29.523
01/07/2003 9:00 p 26.1 26.1 26.1 26.2 26.0 72 18.3 0.0 2.0 SSE 0.00 29.518
01/07/2003 9:30 p 26.4 26.4 26.4 26.6 26.2 72 18.6 0.0 4.0 SE 0.00 29.506
01/07/2003 10:00 p 25.9 25.9 25.9 26.6 25.2 87 22.6 1.0 5.0 SSE 0.00 29.490
01/07/2003 10:30 p 25.2 25.2 25.2 25.2 25.2 89 22.4 0.0 3.0 SSW 0.00 29.455
01/07/2003 11:00 p 25.3 25.3 25.3 25.5 25.2 90 22.8 0.0 1.0 S 0.00 29.441
01/07/2003 11:30 p 25.7 25.7 25.7 25.9 25.5 90 23.2 0.0 1.0 S 0.00 29.428
01/08/2003 12:00 a 26.2 26.2 26.2 26.4 25.9 91 23.9 0.0 2.0 S 0.00 29.405
01/08/2003 12:30 a 26.7 26.7 26.7 27.0 26.4 92 24.7 0.0 2.0 S 0.00 29.383
01/08/2003 1:00 a 26.8 26.8 26.8 27.0 26.7 92 24.8 0.0 2.0 S 0.00 29.350
01/08/2003 1:30 a 26.8 26.8 26.8 26.9 26.7 92 24.8 0.0 2.0 S 0.00 29.337
01/08/2003 2:00 a 26.9 26.9 26.9 27.0 26.9 92 24.9 0.0 1.0 S 0.00 29.328
01/08/2003 2:30 a 27.0 27.0 27.0 27.1 27.0 92 25.0 0.0 0.0 --- 0.00 29.316
01/08/2003 3:00 a 27.2 27.2 27.2 27.2 27.1 92 25.2 0.0 0.0 --- 0.00 29.299
01/08/2003 3:30 a 27.3 27.3 27.3 27.3 27.2 92 25.3 0.0 0.0 --- 0.00 29.267
01/08/2003 4:00 a 27.4 27.4 27.4 27.5 27.3 92 25.4 0.0 1.0 S 0.00 29.249
01/08/2003 4:30 a 27.5 27.5 27.5 27.6 27.5 91 25.2 0.0 0.0 --- 0.00 29.236
01/08/2003 5:00 a 27.6 27.6 27.6 27.6 27.5 91 25.3 0.0 0.0 --- 0.00 29.221
01/08/2003 5:30 a 27.7 27.7 27.7 27.8 27.6 91 25.4 0.0 0.0 --- 0.00 29.207
01/08/2003 6:00 a 27.9 27.9 27.9 28.1 27.8 91 25.6 0.0 1.0 S 0.00 29.218
01/08/2003 6:30 a 28.3 28.3 28.3 28.4 28.1 91 26.0 0.0 2.0 S 0.00 29.234
01/08/2003 7:00 a 28.4 28.4 28.4 28.6 28.3 90 25.8 0.0 0.0 --- 0.00 29.232
01/08/2003 7:30 a 28.9 28.9 28.9 29.1 28.6 91 26.6 0.0 2.0 S 0.00 29.209
01/08/2003 8:00 a 29.3 29.3 29.3 29.6 29.1 91 27.0 0.0 2.0 S 0.00 29.208
01/08/2003 8:30 a 29.9 29.9 29.9 30.4 29.6 91 27.6 0.0 0.0 --- 0.00 29.213
01/08/2003 9:00 a 31.0 31.0 31.0 31.6 30.4 90 28.4 0.0 0.0 --- 0.00 29.213
01/08/2003 9:30 a 32.2 32.2 32.2 32.9 31.6 88 29.1 0.0 0.0 --- 0.00 29.209
01/08/2003 10:00 a 33.3 33.3 33.3 33.9 32.8 86 29.6 0.0 2.0 S 0.00 29.203
01/08/2003 10:30 a 33.9 33.9 33.9 34.1 33.8 86 30.2 0.0 2.0 S 0.00 29.199
01/08/2003 11:00 a 34.5 34.5 34.5 35.4 34.0 84 30.2 0.0 1.0 S 0.00 29.187
01/08/2003 11:30 a 36.5 36.5 36.5 37.8 35.4 81 31.2 0.0 2.0 S 0.00 29.171
01/08/2003 12:00 p 38.3 38.3 38.3 38.4 37.8 81 33.0 0.0 2.0 S 0.02 29.160
01/08/2003 12:30 p 39.6 39.6 39.6 41.1 38.3 81 34.3 0.0 1.0 S 0.02 29.150
01/08/2003 1:00 p 42.1 42.1 42.1 42.8 41.1 79 36.1 0.0 4.0 SSE 0.02 29.152
01/08/2003 1:30 p 42.2 42.2 42.2 42.6 41.4 80 36.5 0.0 4.0 SSE 0.02 29.156
01/08/2003 2:00 p 40.3 40.3 40.3 41.4 39.7 81 34.9 0.0 2.0 SSE 0.01 29.162
01/08/2003 2:30 p 39.8 39.8 39.8 40.0 39.6 81 34.5 0.0 2.0 SSE 0.01 29.172
01/08/2003 3:00 p 39.9 39.9 39.9 40.0 39.7 81 34.6 0.0 3.0 S 0.01 29.184
01/08/2003 3:30 p 40.1 40.1 40.1 40.6 39.7 79 34.1 1.0 6.0 SSE 0.00 29.191
01/08/2003 4:00 p 40.1 40.1 40.1 40.6 39.6 81 34.7 0.0 4.0 SSE 0.01 29.212
01/08/2003 4:30 p 39.3 39.3 39.3 39.6 39.1 81 34.0 0.0 0.0 --- 0.00 29.210
01/08/2003 5:00 p 38.8 38.8 38.8 39.1 38.7 82 33.8 0.0 5.0 SSE 0.01 29.207
01/08/2003 5:30 p 38.0 38.0 38.0 38.7 37.6 83 33.3 0.0 0.0 --- 0.00 29.214
01/08/2003 6:00 p 37.8 37.8 37.8 37.9 37.6 84 33.4 0.0 0.0 --- 0.00 29.225
01/08/2003 6:30 p 37.8 37.8 37.8 38.2 37.7 83 33.1 0.0 4.0 S 0.00 29.235
01/08/2003 7:00 p 38.5 38.5 38.5 38.7 38.2 83 33.8 0.0 2.0 SSE 0.01 29.221
01/08/2003 7:30 p 38.4 38.4 38.4 38.6 38.2 83 33.7 0.0 1.0 --- 0.00 29.227
01/08/2003 8:00 p 38.2 38.2 38.2 38.3 38.0 84 33.8 0.0 1.0 --- 0.00 29.206
01/08/2003 8:30 p 38.0 38.0 38.0 38.1 37.9 84 33.6 0.0 0.0 --- 0.00 29.201
01/08/2003 9:00 p 38.4 38.4 38.4 38.5 38.0 84 34.0 0.0 2.0 SSE 0.00 29.172
01/08/2003 9:30 p 38.4 38.4 38.4 38.4 38.2 84 34.0 0.0 2.0 SSE 0.00 29.161
01/08/2003 10:00 p 38.3 38.3 38.3 38.4 38.2 85 34.2 0.0 1.0 --- 0.01 29.141
01/08/2003 10:30 p 38.3 38.3 38.3 38.4 38.2 84 33.9 0.0 0.0 --- 0.00 29.121
01/08/2003 11:00 p 37.5 37.5 37.5 38.2 37.1 86 33.7 0.0 0.0 --- 0.00 29.103
01/08/2003 11:30 p 36.4 36.4 36.4 37.3 35.0 88 33.2 0.0 0.0 --- 0.00 29.069
01/09/2003 12:00 a 34.4 34.4 34.4 35.0 33.6 90 31.8 0.0 0.0 --- 0.00 29.044
01/09/2003 12:30 a 32.7 32.7 32.7 33.6 32.1 92 30.6 0.0 0.0 --- 0.00 29.026
01/09/2003 1:00 a 33.6 33.6 33.6 34.0 32.8 91 31.3 0.0 1.0 SSE 0.00 28.993
01/09/2003 1:30 a 33.7 33.7 33.7 34.0 33.2 91 31.4 0.0 2.0 SSE 0.00 28.973
01/09/2003 2:00 a 33.1 33.1 33.1 33.6 32.2 92 31.0 0.0 0.0 --- 0.00 28.929
01/09/2003 2:30 a 31.7 31.7 31.7 32.2 31.5 93 29.9 0.0 1.0 SSE 0.00 28.927
01/09/2003 3:00 a 31.8 31.8 31.8 33.0 31.2 93 30.0 0.0 1.0 SSE 0.00 28.930
01/09/2003 3:30 a 33.7 33.7 33.7 34.7 33.0 91 31.4 0.0 1.0 --- 0.00 28.930
01/09/2003 4:00 a 34.8 34.8 34.8 35.3 33.9 91 32.4 0.0 1.0 SSE 0.00 28.918
01/09/2003 4:30 a 33.1 33.1 33.1 33.9 32.2 92 31.0 0.0 2.0 SSE 0.00 28.911
01/09/2003 5:00 a 31.8 31.8 31.8 32.2 31.5 93 30.0 0.0 1.0 --- 0.00 28.930
01/09/2003 5:30 a 31.2 31.2 31.2 31.7 30.9 93 29.4 0.0 1.0 --- 0.00 28.937
01/09/2003 6:00 a 31.8 31.8 31.8 32.0 31.5 93 30.0 0.0 0.0 --- 0.00 28.958
01/09/2003 6:30 a 31.9 31.9 31.9 32.8 31.4 93 30.1 0.0 0.0 --- 0.00 28.978
01/09/2003 7:00 a 33.9 33.9 33.9 34.9 32.8 90 31.3 0.0 2.0 SSE 0.00 29.000
01/09/2003 7:30 a 36.8 36.8 36.8 39.8 34.9 84 32.4 0.0 5.0 SSE 0.00 29.029
01/09/2003 8:00 a 42.2 42.2 42.2 43.8 39.9 73 34.2 1.0 8.0 SSE 0.00 29.057
01/09/2003 8:30 a 44.4 44.4 44.4 44.6 43.8 72 36.0 1.0 9.0 SSE 0.00 29.084
01/09/2003 9:00 a 45.3 45.3 45.3 45.7 44.6 71 36.5 2.0 6.0 SSE 0.01 29.101
01/09/2003 9:30 a 46.2 46.2 46.2 46.4 45.7 69 36.6 2.0 10.0 SSE 0.00 29.128
01/09/2003 10:00 a 46.6 46.6 46.6 47.0 46.3 66 35.9 2.0 7.0 SSE 0.00 29.151
01/09/2003 10:30 a 47.2 47.2 47.2 47.4 47.0 68 37.2 1.0 7.0 S 0.00 29.166
01/09/2003 11:00 a 47.0 47.0 47.0 47.3 46.8 67 36.6 1.0 5.0 SSE 0.00 29.173
01/09/2003 11:30 a 47.5 47.5 47.5 47.8 47.1 66 36.7 1.0 6.0 SSE 0.00 29.185
01/09/2003 12:00 p 47.4 47.4 47.4 48.1 47.2 61 34.6 1.0 6.0 SSE 0.00 29.187
01/09/2003 12:30 p 48.9 48.9 48.9 49.2 48.2 62 36.5 2.0 9.0 SSE 0.00 29.191
01/09/2003 1:00 p 49.8 49.8 49.8 50.8 49.2 60 36.5 2.0 8.0 SSE 0.00 29.185
01/09/2003 1:30 p 49.7 49.7 49.7 50.3 48.8 61 36.8 3.0 12.0 SSE 0.00 29.201
01/09/2003 2:00 p 50.0 50.0 50.0 50.4 49.8 58 35.8 2.0 11.0 SSE 0.00 29.219
01/09/2003 2:30 p 50.3 50.3 50.3 50.9 49.9 55 34.8 3.0 15.0 SSE 0.00 29.237
01/09/2003 3:00 p 49.7 49.7 49.7 50.4 48.8 53 33.3 2.0 9.0 SSE 0.00 29.240
01/09/2003 3:30 p 48.2 48.2 48.2 48.8 47.7 51 30.9 1.0 6.0 SSE 0.00 29.254
01/09/2003 4:00 p 47.9 47.9 47.9 48.4 47.7 51 30.7 1.0 7.0 SSE 0.00 29.265
01/09/2003 4:30 p 47.7 47.7 47.7 48.0 46.9 54 31.9 1.0 4.0 S 0.00 29.278
01/09/2003 5:00 p 46.4 46.4 46.4 47.0 45.8 57 32.0 0.0 1.0 S 0.00 29.287
01/09/2003 5:30 p 44.9 44.9 44.9 45.8 43.3 61 32.3 0.0 1.0 --- 0.00 29.292
01/09/2003 6:00 p 41.0 41.0 41.0 43.2 39.3 68 31.3 0.0 0.0 --- 0.00 29.292
01/09/2003 6:30 p 38.5 38.5 38.5 39.3 37.8 72 30.3 0.0 1.0 --- 0.00 29.299
01/09/2003 7:00 p 36.8 36.8 36.8 37.9 35.6 77 30.3 0.0 0.0 --- 0.00 29.303
01/09/2003 7:30 p 35.8 35.8 35.8 36.2 35.1 79 29.9 0.0 0.0 --- 0.00 29.295
01/09/2003 8:00 p 34.4 34.4 34.4 35.1 34.2 84 30.1 0.0 0.0 --- 0.00 29.291
01/09/2003 8:30 p 33.2 33.2 33.2 34.2 32.5 86 29.5 0.0 0.0 --- 0.00 29.287
01/09/2003 9:00 p 32.0 32.0 32.0 32.5 31.5 88 28.9 0.0 0.0 --- 0.00 29.295
01/09/2003 9:30 p 31.4 31.4 31.4 31.6 31.1 89 28.5 0.0 0.0 --- 0.00 29.288
01/09/2003 10:00 p 30.5 30.5 30.5 31.1 30.3 91 28.2 0.0 0.0 --- 0.00 29.282
01/09/2003 10:30 p 31.1 31.1 31.1 31.2 30.8 90 28.5 0.0 2.0 S 0.00 29.274
01/09/2003 11:00 p 31.1 31.1 31.1 31.4 30.8 89 28.2 0.0 0.0 --- 0.00 29.267
01/09/2003 11:30 p 31.4 31.4 31.4 31.6 31.3 89 28.5 0.0 0.0 --- 0.00 29.260
01/10/2003 12:00 a 32.2 32.2 32.2 32.9 31.6 87 28.8 0.0 2.0 S 0.00 29.250
01/10/2003 12:30 a 33.2 33.2 33.2 33.4 32.9 87 29.8 0.0 0.0 --- 0.00 29.244
01/10/2003 1:00 a 33.6 33.6 33.6 33.7 33.4 86 29.9 0.0 0.0 --- 0.00 29.247
01/10/2003 1:30 a 33.1 33.1 33.1 33.8 31.7 89 30.2 0.0 0.0 --- 0.00 29.252
01/10/2003 2:00 a 30.8 30.8 30.8 31.7 29.9 90 28.2 0.0 1.0 S 0.00 29.256
01/10/2003 2:30 a 29.4 29.4 29.4 29.9 29.1 91 27.1 0.0 0.0 --- 0.00 29.266
01/10/2003 3:00 a 29.5 29.5 29.5 30.5 29.0 92 27.5 0.0 0.0 --- 0.00 29.269
01/10/2003 3:30 a 32.7 32.7 32.7 35.6 30.5 82 27.8 0.0 6.0 S 0.00 29.269
01/10/2003 4:00 a 39.4 39.4 39.4 41.5 35.7 66 29.0 3.0 12.0 SSE 0.00 29.274
01/10/2003 4:30 a 41.2 41.2 41.2 41.6 40.9 62 29.2 3.0 16.0 SSE 0.00 29.278
01/10/2003 5:00 a 40.3 40.3 40.3 41.0 39.7 63 28.7 3.0 10.0 SSE 0.00 29.295
01/10/2003 5:30 a 38.6 38.6 38.6 39.7 37.7 67 28.6 2.0 6.0 SSE 0.00 29.312
01/10/2003 6:00 a 36.7 36.7 36.7 37.7 35.8 71 28.2 0.0 3.0 SE 0.00 29.319
01/10/2003 6:30 a 36.3 36.3 36.3 37.0 35.8 67 26.4 0.0 3.0 SSE 0.00 29.327
01/10/2003 7:00 a 35.9 35.9 35.9 37.0 34.6 70 27.1 0.0 1.0 SSE 0.00 29.340
01/10/2003 7:30 a 33.7 33.7 33.7 34.6 33.2 74 26.3 0.0 0.0 --- 0.00 29.354
01/10/2003 8:00 a 33.7 33.7 33.7 35.1 33.2 71 25.3 0.0 1.0 SSE 0.00 29.366
01/10/2003 8:30 a 41.6 41.6 41.6 48.3 35.2 47 22.9 0.0 2.0 S 0.00 29.375
01/10/2003 9:00 a 49.3 49.3 49.3 50.4 47.3 47 29.9 1.0 5.0 SSE 0.00 29.388
01/10/2003 9:30 a 46.2 46.2 46.2 47.3 45.6 54 30.5 2.0 9.0 SSE 0.00 29.405
01/10/2003 10:00 a 45.2 45.2 45.2 46.3 41.5 62 33.0 3.0 10.0 SSE 0.00 29.440
01/10/2003 10:30 a 40.5 40.5 40.5 41.4 39.9 60 27.7 3.0 10.0 SSW 0.00 29.455
01/10/2003 11:00 a 39.8 39.8 39.8 41.6 39.1 55 25.0 2.0 10.0 SSE 0.00 29.439
01/10/2003 11:30 a 45.8 45.8 45.8 47.0 41.7 36 20.4 3.0 10.0 SSE 0.00 29.436
01/10/2003 12:00 p 47.7 47.7 47.7 48.4 46.3 31 18.6 3.0 15.0 SSE 0.00 29.432
01/10/2003 12:30 p 43.4 43.4 43.4 47.9 41.4 41 21.3 2.0 9.0 SSE 0.00 29.419
01/10/2003 1:00 p 40.6 40.6 40.6 41.4 40.3 42 19.3 3.0 13.0 SSE 0.00 29.420
01/10/2003 1:30 p 40.1 40.1 40.1 40.4 39.8 39 17.1 3.0 12.0 SSE 0.00 29.424
01/10/2003 2:00 p 40.1 40.1 40.1 40.5 39.9 41 18.3 3.0 10.0 SSE 0.00 29.434
01/10/2003 2:30 p 39.9 39.9 39.9 40.4 39.5 42 18.7 3.0 10.0 SSE 0.00 29.443
01/10/2003 3:00 p 39.1 39.1 39.1 39.5 38.9 44 19.0 3.0 10.0 SSE 0.00 29.447
01/10/2003 3:30 p 38.6 38.6 38.6 39.2 37.5 47 20.1 2.0 8.0 SSE 0.00 29.460
01/10/2003 4:00 p 36.7 36.7 36.7 37.5 35.4 52 20.7 2.0 7.0 SSE 0.00 29.477
01/10/2003 4:30 p 35.4 35.4 35.4 35.8 35.1 58 22.1 2.0 10.0 SSE 0.00 29.497
01/10/2003 5:00 p 34.8 34.8 34.8 35.4 34.4 57 21.1 2.0 8.0 SSE 0.00 29.495
01/10/2003 5:30 p 34.6 34.6 34.6 34.7 34.5 59 21.8 1.0 6.0 SSE 0.00 29.511
01/10/2003 6:00 p 33.6 33.6 33.6 34.5 32.2 65 23.1 0.0 3.0 SSE 0.00 29.511
01/10/2003 6:30 p 31.1 31.1 31.1 32.2 30.2 69 22.1 0.0 2.0 ESE 0.00 29.520
01/10/2003 7:00 p 31.5 31.5 31.5 31.9 30.3 64 20.7 0.0 2.0 SSE 0.00 29.535
01/10/2003 7:30 p 32.4 32.4 32.4 33.0 31.9 59 19.7 1.0 4.0 S 0.00 29.541
01/10/2003 8:00 p 33.2 33.2 33.2 33.3 33.0 48 15.7 2.0 9.0 SSE 0.00 29.552
01/10/2003 8:30 p 32.8 32.8 32.8 33.3 32.4 43 12.8 2.0 8.0 SSE 0.00 29.557
01/10/2003 9:00 p 31.9 31.9 31.9 32.4 31.5 45 13.0 1.0 6.0 SSE 0.00 29.563
01/10/2003 9:30 p 30.7 30.7 30.7 31.5 30.0 47 12.9 1.0 4.0 SSE 0.00 29.563
01/10/2003 10:00 p 29.8 29.8 29.8 30.4 29.2 48 12.5 0.0 3.0 SSE 0.00 29.563
01/10/2003 10:30 p 30.4 30.4 30.4 30.5 30.1 51 14.4 0.0 3.0 SSE 0.00 29.574
01/10/2003 11:00 p 29.7 29.7 29.7 30.1 29.2 59 17.1 1.0 5.0 S 0.00 29.574
01/10/2003 11:30 p 28.8 28.8 28.8 29.2 28.6 63 17.8 1.0 3.0 S 0.00 29.574
01/11/2003 12:00 a 28.5 28.5 28.5 28.8 28.1 65 18.2 1.0 4.0 S 0.00 29.573
01/11/2003 12:30 a 29.1 29.1 29.1 29.9 28.3 60 17.0 2.0 7.0 SSE 0.00 29.584
01/11/2003 1:00 a 29.2 29.2 29.2 29.9 28.4 66 19.3 2.0 7.0 SSE 0.00 29.609
01/11/2003 1:30 a 28.3 28.3 28.3 28.7 27.9 55 14.2 3.0 11.0 SSE 0.00 29.636
01/11/2003 2:00 a 27.4 27.4 27.4 27.9 27.2 52 12.1 3.0 12.0 SSE 0.00 29.651
01/11/2003 2:30 a 26.9 26.9 26.9 27.5 25.8 60 14.9 2.0 10.0 SSE 0.00 29.665
01/11/2003 3:00 a 25.7 25.7 25.7 25.9 25.5 57 12.6 2.0 7.0 SSE 0.00 29.680
01/11/2003 3:30 a 25.3 25.3 25.3 25.5 24.5 56 11.8 2.0 7.0 SSE 0.00 29.690
01/11/2003 4:00 a 24.6 24.6 24.6 24.9 24.3 50 8.6 1.0 7.0 SSE 0.00 29.704
01/11/2003 4:30 a 24.8 24.8 24.8 25.0 24.3 54 10.5 1.0 5.0 SSE 0.00 29.710
01/11/2003 5:00 a 24.0 24.0 24.0 24.3 23.9 63 13.2 1.0 5.0 SSE 0.00 29.722
01/11/2003 5:30 a 23.9 23.9 23.9 24.2 23.7 48 7.1 1.0 10.0 SSE 0.00 29.744
01/11/2003 6:00 a 23.5 23.5 23.5 23.9 22.9 50 7.6 2.0 9.0 SSE 0.00 29.765
01/11/2003 6:30 a 22.6 22.6 22.6 22.9 22.3 52 7.6 1.0 9.0 SSE 0.00 29.770
01/11/2003 7:00 a 22.4 22.4 22.4 22.5 22.3 50 6.6 1.0 6.0 SSE 0.00 29.785
01/11/2003 7:30 a 22.5 22.5 22.5 22.7 22.3 49 6.2 2.0 10.0 SSE 0.00 29.800
01/11/2003 8:00 a 23.1 23.1 23.1 24.4 22.6 50 7.2 1.0 6.0 SSE 0.00 29.806
01/11/2003 8:30 a 29.0 29.0 29.0 33.8 24.4 35 4.8 1.0 5.0 SSE 0.00 29.815
01/11/2003 9:00 a 34.0 34.0 34.0 35.1 32.4 34 8.6 2.0 7.0 SSE 0.00 29.833
01/11/2003 9:30 a 30.2 30.2 30.2 32.3 28.4 39 8.2 3.0 14.0 SSE 0.00 29.842
01/11/2003 10:00 a 28.8 28.8 28.8 29.5 28.1 39 7.0 3.0 14.0 SSE 0.00 29.853
01/11/2003 10:30 a 30.0 30.0 30.0 31.6 28.8 38 7.5 2.0 10.0 SSE 0.00 29.850
01/11/2003 11:00 a 33.0 33.0 33.0 36.3 30.3 32 6.4 3.0 10.0 SSE 0.00 29.843
01/11/2003 11:30 a 36.2 36.2 36.2 37.0 34.9 29 7.0 3.0 10.0 SSE 0.00 29.823
01/11/2003 12:00 p 37.1 37.1 37.1 38.6 35.3 28 7.0 3.0 13.0 SSE 0.00 29.817
01/11/2003 12:30 p 34.1 34.1 34.1 37.3 31.9 35 9.3 3.0 9.0 SSE 0.00 29.804
01/11/2003 1:00 p 30.8 30.8 30.8 31.9 29.9 39 8.8 3.0 13.0 SSE 0.00 29.803
01/11/2003 1:30 p 31.2 31.2 31.2 31.7 30.5 36 7.4 3.0 11.0 SSE 0.00 29.791
01/11/2003 2:00 p 31.2 31.2 31.2 31.9 30.5 36 7.4 2.0 9.0 SSE 0.00 29.798
01/11/2003 2:30 p 30.7 30.7 30.7 31.2 30.3 38 8.1 2.0 8.0 SSE 0.00 29.798
01/11/2003 3:00 p 29.8 29.8 29.8 30.5 29.3 40 8.4 3.0 8.0 SSE 0.00 29.812
01/11/2003 3:30 p 29.5 29.5 29.5 30.0 29.2 41 8.7 2.0 9.0 SSE 0.00 29.816
01/11/2003 4:00 p 29.0 29.0 29.0 29.4 28.6 41 8.3 2.0 9.0 SSE 0.00 29.824
01/11/2003 4:30 p 28.2 28.2 28.2 28.8 27.7 43 8.6 2.0 7.0 SSE 0.00 29.831
01/11/2003 5:00 p 27.1 27.1 27.1 27.7 26.6 46 9.1 1.0 5.0 SSE 0.00 29.845
01/11/2003 5:30 p 26.4 26.4 26.4 26.7 26.2 47 8.9 1.0 5.0 SSE 0.00 29.863
01/11/2003 6:00 p 26.9 26.9 26.9 27.1 26.8 43 7.4 1.0 9.0 ESE 0.00 29.871
01/11/2003 6:30 p 26.3 26.3 26.3 27.1 25.7 45 7.9 2.0 7.0 SSE 0.00 29.875
01/11/2003 7:00 p 25.3 25.3 25.3 25.7 25.2 47 7.9 2.0 6.0 SSE 0.00 29.880
01/11/2003 7:30 p 24.9 24.9 24.9 25.3 24.4 50 8.9 1.0 4.0 SSE 0.00 29.877
01/11/2003 8:00 p 24.0 24.0 24.0 24.4 23.7 50 8.1 0.0 3.0 SSW 0.00 29.886
01/11/2003 8:30 p 23.7 23.7 23.7 23.9 23.6 52 8.7 0.0 3.0 SSW 0.00 29.892
01/11/2003 9:00 p 23.6 23.6 23.6 24.0 23.5 50 7.7 1.0 5.0 SSE 0.00 29.898
01/11/2003 9:30 p 23.9 23.9 23.9 24.0 23.7 49 7.5 1.0 6.0 S 0.00 29.910
01/11/2003 10:00 p 23.4 23.4 23.4 23.7 23.3 50 7.5 1.0 7.0 S 0.00 29.911
01/11/2003 10:30 p 23.3 23.3 23.3 23.6 22.9 52 8.3 1.0 5.0 SSE 0.00 29.918
01/11/2003 11:00 p 22.7 22.7 22.7 23.0 22.5 52 7.7 1.0 8.0 S 0.00 29.923
01/11/2003 11:30 p 22.5 22.5 22.5 22.8 22.2 52 7.5 1.0 7.0 SSE 0.00 29.928
01/12/2003 12:00 a 22.1 22.1 22.1 22.4 22.0 54 8.0 1.0 4.0 ENE 0.00 29.926
01/12/2003 12:30 a 21.9 21.9 21.9 22.1 21.7 54 7.8 1.0 5.0 S 0.00 29.919
01/12/2003 1:00 a 22.0 22.0 22.0 22.2 21.9 53 7.5 1.0 5.0 SSE 0.00 29.933
01/12/2003 1:30 a 21.4 21.4 21.4 21.9 21.1 55 7.8 1.0 4.0 SSW 0.00 29.931
01/12/2003 2:00 a 21.1 21.1 21.1 21.4 20.8 57 8.3 0.0 3.0 S 0.00 29.939
01/12/2003 2:30 a 21.0 21.0 21.0 21.3 20.9 57 8.2 1.0 4.0 SSE 0.00 29.949
01/12/2003 3:00 a 21.4 21.4 21.4 21.5 21.2 56 8.2 1.0 5.0 SE 0.00 29.947
01/12/2003 3:30 a 21.4 21.4 21.4 21.6 21.3 57 8.5 1.0 7.0 SSE 0.00 29.951
01/12/2003 4:00 a 21.4 21.4 21.4 21.5 21.3 55 7.8 2.0 7.0 SSE 0.00 29.955
01/12/2003 4:30 a 21.5 21.5 21.5 21.6 21.2 56 8.2 2.0 7.0 SSE 0.00 29.967
01/12/2003 5:00 a 20.9 20.9 20.9 21.2 20.7 57 8.1 1.0 4.0 SSE 0.00 29.975
01/12/2003 5:30 a 20.9 20.9 20.9 21.0 20.8 59 8.8 1.0 5.0 SSE 0.00 29.980
01/12/2003 6:00 a 20.9 20.9 20.9 21.1 20.5 59 8.8 1.0 6.0 SSE 0.00 29.997
01/12/2003 6:30 a 20.1 20.1 20.1 20.5 19.8 59 8.1 0.0 4.0 SSE 0.00 30.004
01/12/2003 7:00 a 20.7 20.7 20.7 21.0 20.4 59 8.7 1.0 6.0 SSE 0.00 30.014
01/12/2003 7:30 a 21.1 21.1 21.1 21.5 20.9 59 9.0 1.0 4.0 SSE 0.00 30.023
01/12/2003 8:00 a 22.0 22.0 22.0 23.5 21.5 55 8.3 1.0 4.0 SSE 0.00 30.037
01/12/2003 8:30 a 28.1 28.1 28.1 32.7 23.6 40 6.9 1.0 8.0 S 0.00 30.038
01/12/2003 9:00 a 32.9 32.9 32.9 33.7 31.4 41 11.8 2.0 10.0 SSE 0.00 30.041
01/12/2003 9:30 a 29.8 29.8 29.8 31.5 28.4 48 12.5 2.0 8.0 SSE 0.00 30.041
01/12/2003 10:00 a 30.3 30.3 30.3 32.6 28.4 42 10.0 2.0 9.0 SSE 0.00 30.043
01/12/2003 10:30 a 32.2 32.2 32.2 33.7 30.6 40 10.6 3.0 10.0 SSE 0.00 30.043
01/12/2003 11:00 a 34.9 34.9 34.9 37.9 31.6 34 9.4 2.0 7.0 SSE 0.00 30.043
01/12/2003 11:30 a 38.7 38.7 38.7 39.5 36.8 31 10.7 3.0 12.0 SSE 0.00 30.040
01/12/2003 12:00 p 41.2 41.2 41.2 42.0 38.9 27 9.8 3.0 12.0 SSE 0.00 30.024
01/12/2003 12:30 p 38.3 38.3 38.3 41.9 34.9 36 13.7 4.0 13.0 SSE 0.00 30.025
01/12/2003 1:00 p 34.7 34.7 34.7 35.0 34.5 36 10.5 4.0 13.0 SSE 0.00 30.023
01/12/2003 1:30 p 34.5 34.5 31.4 34.7 34.3 38 11.5 5.0 16.0 SSE 0.00 30.027
01/12/2003 2:00 p 34.3 34.3 34.3 34.4 34.1 38 11.3 4.0 18.0 SSE 0.00 30.016
01/12/2003 2:30 p 33.9 33.9 33.9 34.1 33.7 39 11.6 3.0 9.0 SSE 0.00 30.028
01/12/2003 3:00 p 33.6 33.6 33.6 33.7 33.4 40 11.9 4.0 12.0 SSE 0.00 30.045
01/12/2003 3:30 p 33.1 33.1 33.1 33.4 33.0 42 12.5 2.0 8.0 SSE 0.00 30.056
01/12/2003 4:00 p 32.7 32.7 32.7 33.2 32.3 43 12.7 4.0 10.0 SSE 0.00 30.066
01/12/2003 4:30 p 31.5 31.5 31.5 32.3 31.0 46 13.1 3.0 12.0 SSE 0.00 30.064
01/12/2003 5:00 p 30.3 30.3 30.3 31.1 29.4 48 13.0 2.0 8.0 SSE 0.00 30.071
01/12/2003 5:30 p 28.5 28.5 28.5 29.4 27.3 54 14.0 0.0 4.0 SE 0.00 30.076
01/12/2003 6:00 p 27.8 27.8 27.8 28.1 27.1 54 13.3 1.0 4.0 SSE 0.00 30.085
01/12/2003 6:30 p 27.5 27.5 27.5 27.8 27.1 58 14.7 1.0 4.0 SSE 0.00 30.085
01/12/2003 7:00 p 26.9 26.9 26.9 27.1 26.7 57 13.7 1.0 5.0 SSE 0.00 30.087
01/12/2003 7:30 p 26.8 26.8 26.8 27.0 26.3 59 14.4 1.0 4.0 SSE 0.00 30.091
01/12/2003 8:00 p 25.6 25.6 25.6 26.3 24.8 61 14.0 0.0 2.0 ENE 0.00 30.098
01/12/2003 8:30 p 23.8 23.8 23.8 24.8 23.2 66 14.1 0.0 0.0 --- 0.00 30.100
01/12/2003 9:00 p 22.8 22.8 22.8 23.2 22.3 70 14.5 0.0 1.0 --- 0.00 30.101
01/12/2003 9:30 p 21.6 21.6 21.6 22.3 21.2 71 13.7 0.0 0.0 --- 0.00 30.095
01/12/2003 10:00 p 21.3 21.3 21.3 21.7 21.0 70 13.1 0.0 0.0 --- 0.00 30.087
01/12/2003 10:30 p 21.5 21.5 21.5 21.7 21.2 70 13.2 0.0 0.0 --- 0.00 30.083
01/12/2003 11:00 p 20.8 20.8 20.8 21.2 20.4 72 13.2 0.0 0.0 --- 0.00 30.079
01/12/2003 11:30 p 20.5 20.5 20.5 20.7 20.4 73 13.2 0.0 0.0 --- 0.00 30.079
01/13/2003 12:00 a 19.9 19.9 19.9 20.7 19.2 75 13.3 0.0 0.0 --- 0.00 30.067
01/13/2003 12:30 a 18.8 18.8 18.8 19.2 18.7 78 13.1 0.0 0.0 --- 0.00 30.061
01/13/2003 1:00 a 18.5 18.5 18.5 18.7 18.2 80 13.4 0.0 0.0 --- 0.00 30.058
01/13/2003 1:30 a 18.4 18.4 18.4 18.6 18.2 79 13.0 0.0 0.0 --- 0.00 30.064
01/13/2003 2:00 a 18.1 18.1 18.1 18.6 17.6 80 13.0 0.0 0.0 --- 0.00 30.067
01/13/2003 2:30 a 17.3 17.3 17.3 17.6 16.9 81 12.5 0.0 0.0 --- 0.00 30.054
01/13/2003 3:00 a 16.8 16.8 16.8 17.1 16.6 82 12.3 0.0 0.0 --- 0.00 30.043
01/13/2003 3:30 a 16.6 16.6 16.6 16.7 16.4 82 12.1 0.0 0.0 --- 0.00 30.017
01/13/2003 4:00 a 17.6 17.6 17.6 18.5 16.6 79 12.2 0.0 0.0 --- 0.00 29.996
01/13/2003 4:30 a 19.0 19.0 19.0 19.3 18.5 77 13.0 0.0 0.0 --- 0.00 29.981
01/13/2003 5:00 a 19.6 19.6 19.6 20.0 19.1 75 13.0 0.0 0.0 --- 0.00 29.981
01/13/2003 5:30 a 19.6 19.6 19.6 20.0 19.0 77 13.6 0.0 0.0 --- 0.00 29.972
01/13/2003 6:00 a 18.4 18.4 18.4 19.0 18.1 79 13.0 0.0 0.0 --- 0.00 29.957
01/13/2003 6:30 a 18.3 18.3 18.3 18.6 18.1 79 12.9 0.0 2.0 ENE 0.00 29.949
01/13/2003 7:00 a 18.4 18.4 18.4 18.6 18.2 78 12.7 0.0 0.0 --- 0.00 29.945
01/13/2003 7:30 a 17.5 17.5 17.5 18.2 16.8 81 12.7 0.0 0.0 --- 0.00 29.933
01/13/2003 8:00 a 17.6 17.6 17.6 19.3 16.7 78 11.9 0.0 0.0 --- 0.00 29.938
01/13/2003 8:30 a 26.4 26.4 26.4 33.1 19.4 51 10.7 0.0 2.0 ENE 0.00 29.921
01/13/2003 9:00 a 35.2 35.2 35.2 36.3 33.1 46 16.5 0.0 2.0 ENE 0.00 29.908
01/13/2003 9:30 a 32.1 32.1 32.1 34.3 30.3 53 16.9 0.0 3.0 S 0.00 29.894
01/13/2003 10:00 a 32.4 32.4 32.4 35.2 30.2 46 13.9 1.0 3.0 SSE 0.00 29.885
01/13/2003 10:30 a 34.3 34.3 34.3 36.2 32.7 42 13.6 1.0 5.0 SSE 0.00 29.873
01/13/2003 11:00 a 37.1 37.1 37.1 39.4 34.4 37 13.3 1.0 4.0 S 0.00 29.840
01/13/2003 11:30 a 42.0 42.0 42.0 43.2 38.9 30 12.8 1.0 4.0 S 0.00 29.801
01/13/2003 12:00 p 43.2 43.2 43.2 45.6 41.2 27 11.5 1.0 5.0 SSE 0.00 29.777
01/13/2003 12:30 p 43.3 43.3 43.3 45.2 40.6 32 15.4 1.0 7.0 S 0.00 29.739
01/13/2003 1:00 p 40.4 40.4 40.4 41.0 40.1 32 12.9 1.0 6.0 S 0.00 29.712
01/13/2003 1:30 p 41.5 41.5 41.5 41.8 41.0 32 13.9 2.0 9.0 S 0.00 29.716
01/13/2003 2:00 p 40.7 40.7 40.7 41.6 39.7 33 13.9 2.0 7.0 SSE 0.00 29.705
01/13/2003 2:30 p 39.2 39.2 39.2 39.7 38.6 34 13.2 2.0 6.0 SSE 0.00 29.706
01/13/2003 3:00 p 37.8 37.8 37.8 38.6 37.2 37 13.9 2.0 9.0 SSE 0.00 29.713
01/13/2003 3:30 p 36.7 36.7 36.7 37.2 36.1 39 14.1 1.0 9.0 SSE 0.00 29.718
01/13/2003 4:00 p 36.0 36.0 36.0 36.1 35.8 39 13.5 2.0 9.0 SSE 0.00 29.728
01/13/2003 4:30 p 35.5 35.5 35.5 35.8 35.2 40 13.6 3.0 11.0 SSE 0.00 29.744
01/13/2003 5:00 p 34.4 34.4 34.4 35.1 33.8 42 13.7 1.0 6.0 SSE 0.00 29.762
01/13/2003 5:30 p 34.0 34.0 34.0 34.3 33.7 40 12.2 2.0 14.0 SSE 0.00 29.783
01/13/2003 6:00 p 34.1 34.1 34.1 34.3 33.9 39 11.8 3.0 12.0 SSE 0.00 29.798
01/13/2003 6:30 p 33.6 33.6 33.6 33.9 33.3 40 11.9 2.0 8.0 SSE 0.00 29.801
01/13/2003 7:00 p 33.0 33.0 33.0 33.3 32.5 41 11.9 2.0 7.0 SSE 0.00 29.816
01/13/2003 7:30 p 32.7 32.7 32.7 32.9 32.5 43 12.7 2.0 8.0 SSE 0.00 29.827
01/13/2003 8:00 p 32.4 32.4 32.4 32.5 32.2 43 12.4 3.0 11.0 SSE 0.00 29.835
01/13/2003 8:30 p 32.0 32.0 32.0 32.4 31.5 48 14.5 3.0 11.0 SSE 0.00 29.847
01/13/2003 9:00 p 30.6 30.6 30.6 31.5 29.9 58 17.6 2.0 12.0 SSE 0.00 29.863
01/13/2003 9:30 p 29.3 29.3 29.3 29.9 28.8 48 12.1 2.0 7.0 SSE 0.00 29.888
01/13/2003 10:00 p 28.4 28.4 28.4 28.8 28.1 36 4.9 3.0 10.0 SSE 0.00 29.901
01/13/2003 10:30 p 27.7 27.7 27.7 28.1 27.4 36 4.2 3.0 14.0 SSE 0.00 29.913
01/13/2003 11:00 p 26.8 26.8 26.8 27.4 26.3 38 4.6 2.0 6.0 SSE 0.00 29.925
01/13/2003 11:30 p 25.9 25.9 25.9 26.4 25.2 37 3.2 4.0 10.0 SSE 0.00 29.936
01/14/2003 12:00 a 25.0 25.0 25.0 25.3 24.3 38 3.0 3.0 10.0 SSE 0.00 29.939
01/14/2003 12:30 a 24.0 24.0 24.0 24.3 23.6 40 3.2 3.0 11.0 SSE 0.00 29.950
01/14/2003 1:00 a 23.1 23.1 23.1 23.6 22.6 41 2.9 3.0 10.0 SSE 0.00 29.946
01/14/2003 1:30 a 21.9 21.9 21.9 22.6 21.2 46 4.3 1.0 6.0 SSE 0.00 29.951
01/14/2003 2:00 a 21.5 21.5 21.5 21.8 21.2 44 3.0 1.0 6.0 SSE 0.00 29.964
01/14/2003 2:30 a 21.0 21.0 21.0 21.7 20.6 47 3.9 1.0 5.0 SSE 0.00 29.962
01/14/2003 3:00 a 20.5 20.5 20.5 20.7 20.4 47 3.5 1.0 6.0 SSE 0.00 29.964
01/14/2003 3:30 a 20.5 20.5 20.5 20.7 20.1 47 3.5 2.0 6.0 SSE 0.00 29.959
01/14/2003 4:00 a 19.9 19.9 19.9 20.2 19.7 48 3.4 1.0 6.0 SSE 0.00 29.958
01/14/2003 4:30 a 19.4 19.4 19.4 19.7 19.2 50 3.8 1.0 5.0 SSE 0.00 29.968
01/14/2003 5:00 a 19.4 19.4 19.4 19.6 19.2 48 2.9 2.0 7.0 SSE 0.00 29.963
01/14/2003 5:30 a 19.2 19.2 19.2 19.5 19.1 50 3.6 1.0 5.0 SSE 0.00 29.971
01/14/2003 6:00 a 18.7 18.7 18.7 19.1 18.3 52 4.0 1.0 5.0 SSE 0.00 29.966
01/14/2003 6:30 a 17.9 17.9 17.9 18.4 17.7 54 4.1 1.0 3.0 SSE 0.00 29.971
01/14/2003 7:00 a 17.9 17.9 17.9 18.2 17.6 56 4.9 1.0 5.0 SSE 0.00 29.983
01/14/2003 7:30 a 17.3 17.3 17.3 17.6 17.1 57 4.7 0.0 2.0 SE 0.00 29.996
01/14/2003 8:00 a 18.4 18.4 18.4 19.3 17.3 54 4.5 1.0 3.0 SE 0.00 30.002
01/14/2003 8:30 a 22.6 22.6 22.6 29.3 19.3 37 0.3 1.0 6.0 SSE 0.00 29.999
01/14/2003 9:00 a 30.2 30.2 30.2 31.2 28.9 35 5.9 2.0 7.0 SSE 0.00 30.004
01/14/2003 9:30 a 27.6 27.6 27.6 30.4 25.2 42 7.5 2.0 7.0 SSE 0.00 29.998
01/14/2003 10:00 a 26.4 26.4 26.4 28.6 25.1 37 3.7 2.0 11.0 SSE 0.00 30.002
01/14/2003 10:30 a 27.3 27.3 27.3 29.6 25.6 33 2.0 3.0 11.0 SSE 0.00 29.995
01/14/2003 11:00 a 29.0 29.0 29.0 30.9 27.0 31 2.2 2.0 10.0 SSE 0.00 29.982
01/14/2003 11:30 a 33.6 33.6 33.6 35.1 30.1 27 3.2 2.0 9.0 SSE 0.00 29.969
01/14/2003 12:00 p 36.3 36.3 36.3 37.3 34.1 23 2.1 2.0 9.0 SSE 0.00 29.953
01/14/2003 12:30 p 34.8 34.8 34.8 36.9 29.6 30 6.5 2.0 9.0 SSE 0.00 29.942
01/14/2003 1:00 p 28.3 28.3 28.3 29.6 27.8 31 1.5 3.0 11.0 SSE 0.00 29.936
01/14/2003 1:30 p 27.9 27.9 27.9 28.2 27.7 33 2.5 2.0 8.0 SSE 0.00 29.924
01/14/2003 2:00 p 27.9 27.9 27.9 28.4 27.6 33 2.5 2.0 7.0 SSE 0.00 29.913
01/14/2003 2:30 p 27.9 27.9 27.9 28.4 27.4 35 3.8 2.0 8.0 SSE 0.00 29.914
01/14/2003 3:00 p 27.4 27.4 27.4 27.5 27.1 35 3.4 2.0 8.0 SSE 0.00 29.918
01/14/2003 3:30 p 27.3 27.3 27.3 27.5 27.0 35 3.3 2.0 9.0 SSE 0.00 29.909
01/14/2003 4:00 p 26.9 26.9 26.9 27.5 26.4 36 3.5 2.0 8.0 SSE 0.00 29.903
01/14/2003 4:30 p 26.7 26.7 26.7 27.1 25.9 39 5.1 2.0 7.0 SSE 0.00 29.908
01/14/2003 5:00 p 25.6 25.6 25.6 25.9 25.3 39 4.1 1.0 8.0 SSE 0.00 29.926
01/14/2003 5:30 p 26.0 26.0 26.0 26.2 25.6 38 3.9 1.0 4.0 SSE 0.00 29.938
01/14/2003 6:00 p 25.7 25.7 25.7 26.1 25.2 41 5.3 1.0 4.0 SSE 0.00 29.948
01/14/2003 6:30 p 24.9 24.9 24.9 25.2 24.1 42 5.1 1.0 4.0 SSE 0.00 29.957
01/14/2003 7:00 p 23.7 23.7 23.7 24.1 23.3 45 5.5 0.0 3.0 SSE 0.00 29.963
01/14/2003 7:30 p 22.9 22.9 22.9 23.3 22.6 46 5.2 0.0 2.0 SSE 0.00 29.970
01/14/2003 8:00 p 23.1 23.1 23.1 23.2 22.8 51 7.7 0.0 1.0 SSE 0.00 29.967
01/14/2003 8:30 p 23.5 23.5 23.5 24.1 23.1 51 8.0 0.0 0.0 --- 0.00 29.964
01/14/2003 9:00 p 23.9 23.9 23.9 24.1 23.8 50 8.0 0.0 0.0 --- 0.00 29.962
01/14/2003 9:30 p 24.1 24.1 24.1 24.4 24.0 48 7.3 0.0 0.0 --- 0.00 29.968
01/14/2003 10:00 p 24.5 24.5 24.5 24.6 24.3 46 6.7 0.0 2.0 SSE 0.00 29.962
01/14/2003 10:30 p 23.8 23.8 23.8 24.3 23.1 48 7.0 0.0 0.0 --- 0.00 29.957
01/14/2003 11:00 p 23.1 23.1 23.1 23.4 22.9 50 7.2 0.0 0.0 --- 0.00 29.960
01/14/2003 11:30 p 23.5 23.5 23.5 23.7 23.3 52 8.5 0.0 0.0 --- 0.00 29.957
01/15/2003 12:00 a 23.8 23.8 23.8 23.8 23.7 52 8.8 0.0 0.0 --- 0.00 29.953
01/15/2003 12:30 a 23.9 23.9 23.9 24.0 23.8 53 9.3 0.0 2.0 SSE 0.00 29.953
01/15/2003 1:00 a 24.1 24.1 24.1 24.3 24.0 53 9.5 0.0 5.0 SSE 0.00 29.946
01/15/2003 1:30 a 24.3 24.3 24.3 24.3 24.2 58 11.7 1.0 5.0 S 0.00 29.950
01/15/2003 2:00 a 23.8 23.8 23.8 24.2 23.5 64 13.4 0.0 3.0 SSE 0.00 29.955
01/15/2003 2:30 a 23.3 23.3 23.3 23.5 23.2 63 12.6 0.0 2.0 ESE 0.00 29.956
01/15/2003 3:00 a 22.7 22.7 22.7 23.3 22.0 67 13.4 0.0 3.0 ESE 0.00 29.953
01/15/2003 3:30 a 21.5 21.5 21.5 22.1 21.1 69 12.9 0.0 3.0 SE 0.00 29.951
01/15/2003 4:00 a 21.3 21.3 21.3 21.7 20.9 69 12.7 0.0 3.0 SE 0.00 29.952
01/15/2003 4:30 a 21.4 21.4 21.4 21.7 21.2 69 12.8 0.0 2.0 SE 0.00 29.957
01/15/2003 5:00 a 20.5 20.5 20.5 21.3 20.1 72 12.9 0.0 0.0 --- 0.00 29.964
01/15/2003 5:30 a 19.6 19.6 19.6 20.1 19.3 74 12.7 0.0 0.0 --- 0.00 29.968
01/15/2003 6:00 a 20.0 20.0 20.0 20.3 19.8 73 12.8 0.0 0.0 --- 0.00 29.972
01/15/2003 6:30 a 20.3 20.3 20.3 20.5 20.1 72 12.7 0.0 0.0 --- 0.00 29.969
01/15/2003 7:00 a 20.0 20.0 20.0 20.1 19.8 72 12.4 0.0 0.0 --- 0.00 29.967
01/15/2003 7:30 a 19.2 19.2 19.2 19.8 18.7 73 12.0 0.0 0.0 --- 0.00 29.972
01/15/2003 8:00 a 19.1 19.1 19.1 21.2 18.7 68 10.3 0.0 0.0 --- 0.00 29.977
01/15/2003 8:30 a 27.8 27.8 27.8 33.4 21.2 44 8.7 0.0 2.0 SE 0.00 29.985
01/15/2003 9:00 a 34.4 34.4 34.4 35.0 33.1 42 13.7 0.0 3.0 SE 0.00 29.988
01/15/2003 9:30 a 30.1 30.1 30.1 33.0 27.5 50 13.7 1.0 4.0 SSE 0.00 29.992
01/15/2003 10:00 a 28.8 28.8 28.8 31.1 27.2 45 10.1 1.0 5.0 SSE 0.00 29.997
01/15/2003 10:30 a 29.2 29.2 29.2 30.5 28.1 47 11.5 1.0 5.0 SSE 0.00 29.992
01/15/2003 11:00 a 29.7 29.7 29.7 31.9 27.7 47 12.0 1.0 6.0 SSE 0.00 29.977
01/15/2003 11:30 a 31.8 31.8 31.8 35.3 28.4 38 9.1 1.0 7.0 SSE 0.00 29.965
01/15/2003 12:00 p 38.2 38.2 38.2 39.6 35.3 31 10.2 1.0 5.0 S 0.00 29.954
01/15/2003 12:30 p 36.8 36.8 36.8 39.4 31.3 38 13.6 2.0 8.0 SSE 0.00 29.936
01/15/2003 1:00 p 28.7 28.7 28.7 31.3 28.1 43 9.0 2.0 8.0 SSE 0.00 29.932
01/15/2003 1:30 p 28.3 28.3 28.3 28.6 27.7 50 12.1 3.0 13.0 SSE 0.00 29.929
01/15/2003 2:00 p 28.0 28.0 28.0 28.8 27.4 42 7.9 2.0 9.0 SSE 0.00 29.935
01/15/2003 2:30 p 26.8 26.8 26.8 27.6 26.5 40 5.7 2.0 13.0 SSE 0.00 29.941
01/15/2003 3:00 p 27.3 27.3 27.3 28.3 26.3 42 7.3 2.0 7.0 SSE 0.00 29.948
01/15/2003 3:30 p 28.2 28.2 28.2 29.4 26.5 36 4.7 2.0 7.0 SSE 0.00 29.944
01/15/2003 4:00 p 27.8 27.8 27.8 28.6 27.2 36 4.3 1.0 10.0 SSE 0.00 29.950
01/15/2003 4:30 p 27.3 27.3 27.3 27.7 26.5 37 4.5 2.0 9.0 SSE 0.00 29.967
01/15/2003 5:00 p 25.7 25.7 25.7 26.5 25.0 41 5.3 2.0 6.0 SSE 0.00 29.981
01/15/2003 5:30 p 24.3 24.3 24.3 25.0 23.6 43 5.0 1.0 5.0 SSE 0.00 29.993
01/15/2003 6:00 p 22.8 22.8 22.8 23.6 22.4 47 5.6 1.0 6.0 SE 0.00 30.009
01/15/2003 6:30 p 22.4 22.4 22.4 22.9 22.0 50 6.6 1.0 3.0 S 0.00 30.017
01/15/2003 7:00 p 22.2 22.2 22.2 22.4 21.9 50 6.4 1.0 6.0 SSE 0.00 30.029
01/15/2003 7:30 p 22.0 22.0 22.0 22.4 21.8 50 6.2 1.0 6.0 SSE 0.00 30.033
01/15/2003 8:00 p 21.5 21.5 21.5 21.8 21.0 53 7.0 1.0 5.0 SSE 0.00 30.041
01/15/2003 8:30 p 21.4 21.4 21.4 21.7 21.0 51 6.1 1.0 5.0 SE 0.00 30.042
01/15/2003 9:00 p 21.6 21.6 21.6 21.7 21.3 51 6.3 1.0 5.0 SSE 0.00 30.045
01/15/2003 9:30 p 21.0 21.0 21.0 21.4 20.6 52 6.1 1.0 5.0 SSE 0.00 30.043
01/15/2003 10:00 p 20.4 20.4 20.4 20.7 19.9 53 6.0 1.0 6.0 SSE 0.00 30.052
01/15/2003 10:30 p 19.7 19.7 19.7 19.9 19.5 54 5.8 1.0 5.0 SE 0.00 30.054
01/15/2003 11:00 p 19.2 19.2 19.2 19.6 18.9 55 5.7 1.0 4.0 S 0.00 30.059
01/15/2003 11:30 p 18.7 18.7 18.7 19.1 18.3 56 5.6 0.0 3.0 S 0.00 30.066
01/16/2003 12:00 a 18.7 18.7 18.7 19.0 18.4 54 4.8 1.0 6.0 SSE 0.00 30.070
01/16/2003 12:30 a 18.6 18.6 18.6 18.9 18.5 55 5.1 1.0 8.0 SSE 0.00 30.065
01/16/2003 1:00 a 18.1 18.1 18.1 18.5 17.7 56 5.1 1.0 6.0 SE 0.00 30.063
01/16/2003 1:30 a 17.4 17.4 17.4 17.8 17.1 56 4.4 0.0 4.0 SSE 0.00 30.069
01/16/2003 2:00 a 17.1 17.1 17.1 17.3 17.0 56 4.1 1.0 5.0 SSE 0.00 30.074
01/16/2003 2:30 a 16.9 16.9 16.9 17.2 16.6 56 3.9 1.0 5.0 SSE 0.00 30.080
01/16/2003 3:00 a 16.5 16.5 16.5 16.8 16.3 56 3.6 1.0 5.0 SSE 0.00 30.080
01/16/2003 3:30 a 16.4 16.4 16.4 16.7 16.1 58 4.2 1.0 3.0 SSE 0.00 30.083
01/16/2003 4:00 a 16.1 16.1 16.1 16.3 15.9 58 3.9 1.0 5.0 SSE 0.00 30.095
01/16/2003 4:30 a 15.8 15.8 15.8 16.2 15.5 60 4.4 0.0 3.0 SSE 0.00 30.112
01/16/2003 5:00 a 15.6 15.6 15.6 15.8 15.5 61 4.6 1.0 4.0 SE 0.00 30.107
01/16/2003 5:30 a 15.4 15.4 15.4 15.6 15.3 63 5.1 0.0 3.0 SSW 0.00 30.114
01/16/2003 6:00 a 15.3 15.3 15.3 15.4 15.2 63 5.0 0.0 3.0 SE 0.00 30.129
01/16/2003 6:30 a 14.4 14.4 14.4 15.3 13.5 68 5.8 0.0 0.0 --- 0.00 30.129
01/16/2003 7:00 a 13.5 13.5 13.5 13.9 13.3 68 4.9 0.0 0.0 --- 0.00 30.143
01/16/2003 7:30 a 14.2 14.2 14.2 14.7 13.8 67 5.3 0.0 2.0 SSE 0.00 30.146
01/16/2003 8:00 a 15.8 15.8 15.8 18.4 14.7 60 4.4 1.0 2.0 SSE 0.00 30.155
01/16/2003 8:30 a 24.2 24.2 24.2 28.9 18.4 41 3.9 0.0 3.0 SSE 0.00 30.161
01/16/2003 9:00 a 29.4 29.4 29.4 30.2 28.7 40 8.1 1.0 5.0 SSE 0.00 30.152
01/16/2003 9:30 a 26.2 26.2 26.2 28.8 24.1 49 9.7 2.0 5.0 SSE 0.00 30.161
01/16/2003 10:00 a 25.9 25.9 25.9 28.2 24.0 43 6.5 2.0 6.0 SSE 0.00 30.143
01/16/2003 10:30 a 27.7 27.7 27.7 29.4 26.9 40 6.5 2.0 7.0 SSE 0.00 30.143
01/16/2003 11:00 a 29.7 29.7 29.7 31.4 28.4 37 6.6 1.0 6.0 SSE 0.00 30.125
01/16/2003 11:30 a 31.2 31.2 31.2 33.2 29.8 33 5.5 1.0 7.0 SSE 0.00 30.117
01/16/2003 12:00 p 32.4 32.4 32.4 33.2 31.5 35 7.8 1.0 5.0 SSE 0.00 30.083
01/16/2003 12:30 p 31.1 31.1 31.1 32.1 30.6 37 7.9 2.0 7.0 SSE 0.00 30.073
01/16/2003 1:00 p 30.8 30.8 30.8 31.0 29.9 38 8.2 1.0 7.0 SSE 0.00 30.065
01/16/2003 1:30 p 30.1 30.1 30.1 30.9 29.5 37 7.0 1.0 4.0 S 0.00 30.059
01/16/2003 2:00 p 30.2 30.2 30.2 30.9 29.6 38 7.7 1.0 7.0 SSE 0.00 30.049
01/16/2003 2:30 p 29.7 29.7 29.7 29.8 29.5 37 6.6 1.0 4.0 SSE 0.00 30.044
01/16/2003 3:00 p 29.2 29.2 29.2 29.5 29.0 37 6.2 1.0 5.0 SE 0.00 30.043
01/16/2003 3:30 p 28.7 28.7 28.7 29.2 28.1 40 7.4 1.0 4.0 SSE 0.00 30.023
01/16/2003 4:00 p 27.9 27.9 27.9 28.1 27.7 41 7.3 0.0 2.0 SSE 0.00 30.002
01/16/2003 4:30 p 27.4 27.4 27.4 27.7 27.2 42 7.3 0.0 2.0 S 0.00 29.994
01/16/2003 5:00 p 26.7 26.7 26.7 27.2 26.1 42 6.7 0.0 2.0 S 0.00 29.988
01/16/2003 5:30 p 25.7 25.7 25.7 26.1 25.3 43 6.3 0.0 2.0 S 0.00 29.976
01/16/2003 6:00 p 25.1 25.1 25.1 25.3 24.8 44 6.3 0.0 0.0 --- 0.00 29.966
01/16/2003 6:30 p 25.1 25.1 25.1 25.2 24.9 45 6.8 0.0 0.0 --- 0.00 29.960
01/16/2003 7:00 p 25.1 25.1 25.1 25.4 24.9 44 6.3 0.0 0.0 --- 0.00 29.947
01/16/2003 7:30 p 25.6 25.6 25.6 25.7 25.4 45 7.2 0.0 2.0 S 0.00 29.937
01/16/2003 8:00 p 25.6 25.6 25.6 25.7 25.5 47 8.2 0.0 2.0 S 0.00 29.927
01/16/2003 8:30 p 25.8 25.8 25.8 26.1 25.6 45 7.4 0.0 2.0 S 0.00 29.930
01/16/2003 9:00 p 26.0 26.0 26.0 26.2 26.0 45 7.6 0.0 2.0 S 0.00 29.922
01/16/2003 9:30 p 25.3 25.3 25.3 26.0 24.4 63 14.5 0.0 2.0 SSW 0.00 29.921
01/16/2003 10:00 p 24.4 24.4 24.4 24.5 24.0 71 16.4 0.0 3.0 SSW 0.00 29.924
01/16/2003 10:30 p 23.4 23.4 23.4 24.0 22.9 83 19.0 0.0 2.0 N 0.00 29.914
01/16/2003 11:00 p 22.7 22.7 22.7 22.9 22.6 84 18.6 0.0 1.0 N 0.00 29.890
01/16/2003 11:30 p 22.7 22.7 22.7 22.7 22.6 85 18.9 0.0 0.0 --- 0.00 29.870
01/17/2003 12:00 a 22.7 22.7 22.7 22.7 22.7 85 18.9 0.0 0.0 --- 0.00 29.855
01/17/2003 12:30 a 22.6 22.6 22.6 22.7 22.5 85 18.8 0.0 0.0 --- 0.00 29.820
01/17/2003 1:00 a 22.6 22.6 22.6 22.6 22.5 85 18.8 0.0 0.0 --- 0.00 29.797
01/17/2003 1:30 a 22.4 22.4 22.4 22.5 22.3 85 18.6 0.0 0.0 --- 0.00 29.785
01/17/2003 2:00 a 22.2 22.2 22.2 22.3 22.0 85 18.4 0.0 0.0 --- 0.00 29.779
01/17/2003 2:30 a 21.8 21.8 21.8 22.0 21.6 85 18.0 0.0 0.0 --- 0.00 29.765
01/17/2003 3:00 a 21.6 21.6 21.6 21.6 21.6 85 17.8 0.0 0.0 --- 0.00 29.748
01/17/2003 3:30 a 21.5 21.5 21.5 21.6 21.3 85 17.7 0.0 1.0 N 0.00 29.745
01/17/2003 4:00 a 21.3 21.3 21.3 21.4 21.3 85 17.5 0.0 0.0 --- 0.00 29.722
01/17/2003 4:30 a 21.4 21.4 21.4 21.5 21.3 85 17.6 0.0 1.0 N 0.00 29.707
01/17/2003 5:00 a 21.2 21.2 21.2 21.4 20.7 84 17.1 0.0 1.0 N 0.00 29.699
01/17/2003 5:30 a 19.5 19.5 19.5 20.7 18.6 83 15.2 0.0 0.0 --- 0.00 29.686
01/17/2003 6:00 a 18.2 18.2 18.2 18.6 17.9 83 13.9 0.0 1.0 N 0.00 29.674
01/17/2003 6:30 a 16.8 16.8 16.8 17.9 15.7 82 12.3 0.0 0.0 --- 0.00 29.684
01/17/2003 7:00 a 14.7 14.7 14.7 15.7 14.2 81 9.9 0.0 1.0 N 0.00 29.679
01/17/2003 7:30 a 14.5 14.5 14.5 14.7 14.2 81 9.7 0.0 1.0 N 0.00 29.682
01/17/2003 8:00 a 14.5 14.5 14.5 16.3 14.0 83 10.3 0.0 1.0 N 0.00 29.674
01/17/2003 8:30 a 16.7 16.7 16.7 17.7 16.3 83 12.4 0.0 1.0 N 0.00 29.677
01/17/2003 9:00 a 23.6 23.6 23.6 26.3 17.8 82 18.9 1.0 3.0 SSE 0.00 29.681
01/17/2003 9:30 a 24.4 24.4 24.4 25.6 23.9 83 20.0 1.0 5.0 SSE 0.00 29.691
01/17/2003 10:00 a 25.2 25.2 25.2 26.9 23.8 82 20.5 1.0 6.0 SSE 0.00 29.702
01/17/2003 10:30 a 26.8 26.8 26.8 27.7 26.2 78 20.9 1.0 5.0 SSE 0.00 29.696
01/17/2003 11:00 a 28.4 28.4 28.4 29.7 27.1 76 21.8 1.0 6.0 SSE 0.00 29.691
01/17/2003 11:30 a 30.9 30.9 30.9 32.1 29.2 72 23.0 2.0 10.0 S 0.00 29.681
01/17/2003 12:00 p 36.0 36.0 36.0 37.7 32.1 39 13.5 2.0 8.0 SSE 0.01 29.675
01/17/2003 12:30 p 36.4 36.4 36.4 37.8 31.7 47 18.1 2.0 7.0 SSW 0.02 29.668
01/17/2003 1:00 p 30.5 30.5 30.5 31.7 30.0 48 13.2 3.0 11.0 SSE 0.00 29.661
01/17/2003 1:30 p 30.3 30.3 30.3 30.5 30.1 45 11.5 2.0 12.0 SSE 0.00 29.654
01/17/2003 2:00 p 30.7 30.7 30.7 31.0 30.3 44 11.4 3.0 13.0 SSE 0.00 29.658
01/17/2003 2:30 p 30.2 30.2 30.2 31.0 29.8 44 10.9 2.0 9.0 SSE 0.00 29.661
01/17/2003 3:00 p 32.2 32.2 32.2 33.2 31.0 39 10.0 2.0 11.0 SSE 0.00 29.664
01/17/2003 3:30 p 30.9 30.9 30.9 32.6 29.5 43 11.0 3.0 7.0 S 0.00 29.684
01/17/2003 4:00 p 29.3 29.3 29.3 29.7 28.1 41 8.5 3.0 13.0 SSE 0.00 29.698
01/17/2003 4:30 p 27.5 27.5 27.5 28.2 26.4 41 6.9 3.0 9.0 S 0.00 29.712
01/17/2003 5:00 p 26.1 26.1 26.1 26.4 25.8 45 7.7 3.0 10.0 SSE 0.00 29.740
01/17/2003 5:30 p 24.8 24.8 24.8 26.2 23.7 46 7.0 4.0 13.0 SSE 0.00 29.765
01/17/2003 6:00 p 22.7 22.7 22.7 23.6 21.9 41 2.5 3.0 13.0 S 0.00 29.788
01/17/2003 6:30 p 20.9 20.9 20.9 21.9 20.0 42 1.4 3.0 15.0 SSE 0.00 29.810
01/17/2003 7:00 p 19.2 19.2 19.2 20.0 18.4 42 -0.1 2.0 7.0 SSE 0.00 29.826
01/17/2003 7:30 p 18.0 18.0 18.0 18.4 17.6 42 -1.2 3.0 13.0 SSE 0.00 29.831
01/17/2003 8:00 p 17.0 17.0 17.0 17.6 16.5 41 -2.6 3.0 13.0 SSE 0.00 29.842
01/17/2003 8:30 p 15.9 15.9 15.9 16.5 15.3 41 -3.6 3.0 13.0 SSE 0.00 29.856
01/17/2003 9:00 p 14.8 14.8 14.8 15.3 14.1 40 -5.1 3.0 13.0 SSE 0.00 29.873
01/17/2003 9:30 p 13.4 13.4 13.4 14.1 12.7 43 -4.9 3.0 11.0 SSE 0.00 29.892
01/17/2003 10:00 p 12.2 12.2 12.2 12.8 11.5 42 -6.5 3.0 12.0 SSE 0.00 29.907
01/17/2003 10:30 p 10.8 10.8 10.8 11.5 10.2 44 -6.8 3.0 10.0 SSE 0.00 29.918
01/17/2003 11:00 p 9.8 9.8 9.8 10.3 9.3 45 -7.3 3.0 14.0 SSE 0.00 29.926
01/17/2003 11:30 p 9.0 9.0 9.0 9.4 8.6 45 -8.0 3.0 10.0 SSE 0.00 29.934
01/18/2003 12:00 a 8.5 8.5 8.5 8.8 8.2 47 -7.6 3.0 11.0 SSE 0.00 29.941
01/18/2003 12:30 a 7.8 7.8 7.8 8.2 7.6 48 -7.8 2.0 11.0 SSE 0.00 29.951
01/18/2003 1:00 a 7.1 7.1 7.1 7.7 6.6 51 -7.2 1.0 6.0 SSE 0.00 29.965
01/18/2003 1:30 a 6.7 6.7 6.7 7.0 6.5 52 -7.2 2.0 10.0 SSE 0.00 29.969
01/18/2003 2:00 a 6.5 6.5 6.5 6.6 6.4 52 -7.4 2.0 6.0 SSE 0.00 29.981
01/18/2003 2:30 a 6.2 6.2 6.2 6.5 6.0 54 -6.9 2.0 6.0 SSE 0.00 29.993
01/18/2003 3:00 a 5.8 5.8 5.8 6.1 5.3 55 -6.9 1.0 6.0 SSE 0.00 30.003
01/18/2003 3:30 a 5.5 5.5 5.5 5.7 5.2 56 -6.8 1.0 6.0 SSE 0.00 30.004
01/18/2003 4:00 a 5.3 5.3 5.3 5.5 5.0 56 -7.0 1.0 6.0 SSE 0.00 30.013
01/18/2003 4:30 a 4.9 4.9 4.9 5.1 4.6 58 -6.6 0.0 5.0 SSE 0.00 30.016
01/18/2003 5:00 a 3.6 3.6 3.6 4.6 3.2 61 -6.8 0.0 3.0 SSE 0.00 30.014
01/18/2003 5:30 a 4.1 4.1 4.1 4.6 3.4 60 -6.7 1.0 4.0 SSE 0.00 30.031
01/18/2003 6:00 a 3.3 3.3 3.3 3.9 2.7 64 -6.1 0.0 2.0 SE 0.00 30.039
01/18/2003 6:30 a 2.7 2.7 2.7 2.8 2.5 66 -6.1 0.0 0.0 --- 0.00 30.049
01/18/2003 7:00 a 2.6 2.6 2.6 3.6 2.0 69 -5.2 0.0 3.0 SE 0.00 30.046
01/18/2003 7:30 a 3.1 3.1 3.1 3.7 2.4 67 -5.4 0.0 2.0 SE 0.00 30.048
01/18/2003 8:00 a 4.3 4.3 4.3 7.9 2.6 58 -7.2 1.0 3.0 SE 0.00 30.057
01/18/2003 8:30 a 14.5 14.5 14.5 19.9 8.0 36 -7.6 0.0 5.0 SSE 0.00 30.064
01/18/2003 9:00 a 21.1 21.1 21.1 22.3 19.6 33 -3.5 1.0 5.0 SSE 0.00 30.059
01/18/2003 9:30 a 17.1 17.1 17.1 21.5 13.0 44 -1.0 2.0 6.0 SSE 0.00 30.069
01/18/2003 10:00 a 14.6 14.6 14.6 16.8 12.7 41 -4.8 1.0 7.0 SSE 0.00 30.065
01/18/2003 10:30 a 16.1 16.1 16.1 17.6 14.2 40 -4.0 1.0 6.0 SSE 0.00 30.053
01/18/2003 11:00 a 18.7 18.7 18.7 21.7 15.8 34 -5.0 1.0 6.0 SSE 0.00 30.042
01/18/2003 11:30 a 24.2 24.2 24.2 28.1 20.4 28 -4.2 1.0 6.0 SSE 0.00 30.028
01/18/2003 12:00 p 29.9 29.9 29.9 31.7 28.0 25 -1.6 1.0 4.